<?xml version="1.0" encoding="UTF-8" standalone="no" ?><gpx xmlns="http://www.topografix.com/GPX/1/1" xmlns:gpxx="http://www.garmin.com/xmlschemas/GpxExtensions/v3" xmlns:wptx1="http://www.garmin.com/xmlschemas/WaypointExtension/v1" xmlns:gpxtpx="http://www.garmin.com/xmlschemas/TrackPointExtension/v1" creator="GuideVTT.com" version="1.1" xmlns:xsi="http://www.w3.org/2001/XMLSchema-instance" xsi:schemaLocation="http://www.topografix.com/GPX/1/1 http://www.topografix.com/GPX/1/1/gpx.xsd http://www.garmin.com/xmlschemas/GpxExtensions/v3 http://www8.garmin.com/xmlschemas/GpxExtensionsv3.xsd http://www.garmin.com/xmlschemas/WaypointExtension/v1 http://www8.garmin.com/xmlschemas/WaypointExtensionv1.xsd http://www.garmin.com/xmlschemas/TrackPointExtension/v1 http://www.garmin.com/xmlschemas/TrackPointExtensionv1.xsd">
<metadata><link href="http://www.garmin.com"><text>Garmin International</text></link><time>2013-06-22T15:13:50Z</time></metadata>
<trk><name>racine.gpx</name><extensions><gpxx:TrackExtension><gpxx:DisplayColor>Cyan</gpxx:DisplayColor></gpxx:TrackExtension></extensions><trkseg>
<trkpt lat="46.98922000" lon="6.89425300"><ele>556.2600097536</ele><time>2011-10-11T13:15:41Z</time></trkpt>
<trkpt lat="46.98926000" lon="6.89422600"><ele>556.2600097536</ele><time>2011-10-11T13:16:01Z</time></trkpt>
<trkpt lat="46.98928300" lon="6.89422100"><ele>555.7800293064</ele><time>2011-10-11T13:16:15Z</time></trkpt>
<trkpt lat="46.98928500" lon="6.89425300"><ele>555.2999878992</ele><time>2011-10-11T13:16:21Z</time></trkpt>
<trkpt lat="46.98928700" lon="6.89424900"><ele>556.7399902008</ele><time>2011-10-11T13:16:34Z</time></trkpt>
<trkpt lat="46.98928400" lon="6.89425800"><ele>556.2600097536</ele><time>2011-10-11T13:16:51Z</time></trkpt>
<trkpt lat="46.98930200" lon="6.89428200"><ele>556.7399902008</ele><time>2011-10-11T13:17:05Z</time></trkpt>
<trkpt lat="46.98930300" lon="6.89426700"><ele>556.2600097536</ele><time>2011-10-11T13:17:12Z</time></trkpt>
<trkpt lat="46.98929200" lon="6.89398300"><ele>557.219970648</ele><time>2011-10-11T13:17:19Z</time></trkpt>
<trkpt lat="46.98928600" lon="6.89375600"><ele>557.219970648</ele><time>2011-10-11T13:17:25Z</time></trkpt>
<trkpt lat="46.98916500" lon="6.89368800"><ele>556.2600097536</ele><time>2011-10-11T13:17:29Z</time></trkpt>
<trkpt lat="46.98893400" lon="6.89372800"><ele>552.9000243984</ele><time>2011-10-11T13:17:34Z</time></trkpt>
<trkpt lat="46.98884200" lon="6.89362900"><ele>550.9699707528</ele><time>2011-10-11T13:17:37Z</time></trkpt>
<trkpt lat="46.98881900" lon="6.89349100"><ele>550.0100098584</ele><time>2011-10-11T13:17:39Z</time></trkpt>
<trkpt lat="46.98867100" lon="6.89267500"><ele>548.570007252</ele><time>2011-10-11T13:17:49Z</time></trkpt>
<trkpt lat="46.98850200" lon="6.89209000"><ele>548.0900268048</ele><time>2011-10-11T13:17:57Z</time></trkpt>
<trkpt lat="46.98867200" lon="6.89182200"><ele>548.570007252</ele><time>2011-10-11T13:18:04Z</time></trkpt>
<trkpt lat="46.98875500" lon="6.89180000"><ele>549.5300294112</ele><time>2011-10-11T13:18:06Z</time></trkpt>
<trkpt lat="46.98903300" lon="6.89170300"><ele>552.9000243984</ele><time>2011-10-11T13:18:14Z</time></trkpt>
<trkpt lat="46.98908300" lon="6.89142600"><ele>553.8599852928</ele><time>2011-10-11T13:18:20Z</time></trkpt>
<trkpt lat="46.98905800" lon="6.89130800"><ele>553.8599852928</ele><time>2011-10-11T13:18:22Z</time></trkpt>
<trkpt lat="46.98888700" lon="6.89073900"><ele>553.8599852928</ele><time>2011-10-11T13:18:31Z</time></trkpt>
<trkpt lat="46.98872200" lon="6.89022600"><ele>552.9000243984</ele><time>2011-10-11T13:18:39Z</time></trkpt>
<trkpt lat="46.98858200" lon="6.88982300"><ele>553.3800048456</ele><time>2011-10-11T13:18:45Z</time></trkpt>
<trkpt lat="46.98843200" lon="6.88952300"><ele>553.3800048456</ele><time>2011-10-11T13:18:50Z</time></trkpt>
<trkpt lat="46.98827700" lon="6.88930900"><ele>555.2999878992</ele><time>2011-10-11T13:18:57Z</time></trkpt>
<trkpt lat="46.98817800" lon="6.88898100"><ele>556.7399902008</ele><time>2011-10-11T13:19:03Z</time></trkpt>
<trkpt lat="46.98823400" lon="6.88884300"><ele>558.1799928072</ele><time>2011-10-11T13:19:07Z</time></trkpt>
<trkpt lat="46.98833300" lon="6.88877600"><ele>559.6199951088</ele><time>2011-10-11T13:19:11Z</time></trkpt>
<trkpt lat="46.98834400" lon="6.88862700"><ele>560.1099854928</ele><time>2011-10-11T13:19:15Z</time></trkpt>
<trkpt lat="46.98824900" lon="6.88830900"><ele>563.469970848</ele><time>2011-10-11T13:19:24Z</time></trkpt>
<trkpt lat="46.98814600" lon="6.88794500"><ele>566.8300171632</ele><time>2011-10-11T13:19:35Z</time></trkpt>
<trkpt lat="46.98814900" lon="6.88791000"><ele>567.3200072424</ele><time>2011-10-11T13:19:36Z</time></trkpt>
<trkpt lat="46.98823700" lon="6.88785100"><ele>568.2800294016</ele><time>2011-10-11T13:19:40Z</time></trkpt>
<trkpt lat="46.98835100" lon="6.88789100"><ele>569.7199707432</ele><time>2011-10-11T13:19:45Z</time></trkpt>
<trkpt lat="46.98857900" lon="6.88800900"><ele>572.5999756512</ele><time>2011-10-11T13:19:55Z</time></trkpt>
<trkpt lat="46.98885400" lon="6.88818200"><ele>575.9699706384</ele><time>2011-10-11T13:20:08Z</time></trkpt>
<trkpt lat="46.98909400" lon="6.88830700"><ele>579.3300169536</ele><time>2011-10-11T13:20:19Z</time></trkpt>
<trkpt lat="46.98935500" lon="6.88845900"><ele>582.2199708384</ele><time>2011-10-11T13:20:31Z</time></trkpt>
<trkpt lat="46.98960000" lon="6.88858900"><ele>584.1400145472</ele><time>2011-10-11T13:20:45Z</time></trkpt>
<trkpt lat="46.98978500" lon="6.88877300"><ele>587.4999999024</ele><time>2011-10-11T13:20:56Z</time></trkpt>
<trkpt lat="46.98999700" lon="6.88896100"><ele>590.3900147472</ele><time>2011-10-11T13:21:09Z</time></trkpt>
<trkpt lat="46.99012800" lon="6.88914400"><ele>592.309997496</ele><time>2011-10-11T13:21:18Z</time></trkpt>
<trkpt lat="46.99020800" lon="6.88933100"><ele>594.2299805496</ele><time>2011-10-11T13:21:26Z</time></trkpt>
<trkpt lat="46.99031500" lon="6.88973000"><ele>597.1199950896</ele><time>2011-10-11T13:21:40Z</time></trkpt>
<trkpt lat="46.99049400" lon="6.89017900"><ele>599.9999999976</ele><time>2011-10-11T13:21:57Z</time></trkpt>
<trkpt lat="46.99067500" lon="6.89044800"><ele>601.9199830512</ele><time>2011-10-11T13:22:09Z</time></trkpt>
<trkpt lat="46.99088500" lon="6.89078500"><ele>604.8099975912</ele><time>2011-10-11T13:22:24Z</time></trkpt>
<trkpt lat="46.99099000" lon="6.89118600"><ele>608.1699829464</ele><time>2011-10-11T13:22:38Z</time></trkpt>
<trkpt lat="46.99102000" lon="6.89132800"><ele>609.1300048008</ele><time>2011-10-11T13:22:43Z</time></trkpt>
<trkpt lat="46.99103900" lon="6.89143500"><ele>610.09002696</ele><time>2011-10-11T13:22:47Z</time></trkpt>
<trkpt lat="46.99113700" lon="6.89188400"><ele>613.4600219472</ele><time>2011-10-11T13:23:03Z</time></trkpt>
<trkpt lat="46.99121700" lon="6.89233200"><ele>615.859985448</ele><time>2011-10-11T13:23:18Z</time></trkpt>
<trkpt lat="46.99133200" lon="6.89271300"><ele>619.2299804352</ele><time>2011-10-11T13:23:32Z</time></trkpt>
<trkpt lat="46.99141000" lon="6.89302900"><ele>621.630004896</ele><time>2011-10-11T13:23:44Z</time></trkpt>
<trkpt lat="46.99148800" lon="6.89334100"><ele>624.9899902512</ele><time>2011-10-11T13:23:57Z</time></trkpt>
<trkpt lat="46.99150400" lon="6.89340000"><ele>625.9600220424</ele><time>2011-10-11T13:23:59Z</time></trkpt>
<trkpt lat="46.99160400" lon="6.89376200"><ele>629.3200073976</ele><time>2011-10-11T13:24:12Z</time></trkpt>
<trkpt lat="46.99175300" lon="6.89394600"><ele>631.7199705936</ele><time>2011-10-11T13:24:23Z</time></trkpt>
<trkpt lat="46.99191800" lon="6.89402400"><ele>634.1300049912</ele><time>2011-10-11T13:24:33Z</time></trkpt>
<trkpt lat="46.99212200" lon="6.89404600"><ele>637.4899903464</ele><time>2011-10-11T13:24:45Z</time></trkpt>
<trkpt lat="46.99215200" lon="6.89402900"><ele>637.9699707936</ele><time>2011-10-11T13:24:47Z</time></trkpt>
<trkpt lat="46.99227700" lon="6.89401600"><ele>639.4099730952</ele><time>2011-10-11T13:24:54Z</time></trkpt>
<trkpt lat="46.99245700" lon="6.89397800"><ele>641.3400267408</ele><time>2011-10-11T13:25:03Z</time></trkpt>
<trkpt lat="46.99259400" lon="6.89395000"><ele>643.2600097944</ele><time>2011-10-11T13:25:11Z</time></trkpt>
<trkpt lat="46.99267900" lon="6.89393500"><ele>644.2199706888</ele><time>2011-10-11T13:25:16Z</time></trkpt>
<trkpt lat="46.99274100" lon="6.89390100"><ele>645.1799925432</ele><time>2011-10-11T13:25:20Z</time></trkpt>
<trkpt lat="46.99288900" lon="6.89387700"><ele>647.0999755968</ele><time>2011-10-11T13:25:28Z</time></trkpt>
<trkpt lat="46.99292000" lon="6.89385700"><ele>647.5900269408</ele><time>2011-10-11T13:25:30Z</time></trkpt>
<trkpt lat="46.99314700" lon="6.89368700"><ele>650.950012296</ele><time>2011-10-11T13:25:44Z</time></trkpt>
<trkpt lat="46.99324200" lon="6.89350100"><ele>652.3900145976</ele><time>2011-10-11T13:25:52Z</time></trkpt>
<trkpt lat="46.99342300" lon="6.89311400"><ele>655.2800294424</ele><time>2011-10-11T13:26:07Z</time></trkpt>
<trkpt lat="46.99359200" lon="6.89272000"><ele>657.2000121912</ele><time>2011-10-11T13:26:21Z</time></trkpt>
<trkpt lat="46.99374900" lon="6.89234300"><ele>658.6400147976</ele><time>2011-10-11T13:26:33Z</time></trkpt>
<trkpt lat="46.99390300" lon="6.89194800"><ele>660.5599975464</ele><time>2011-10-11T13:26:45Z</time></trkpt>
<trkpt lat="46.99407500" lon="6.89148000"><ele>663.4500120864</ele><time>2011-10-11T13:27:00Z</time></trkpt>
<trkpt lat="46.99420600" lon="6.89109500"><ele>665.8499755872</ele><time>2011-10-11T13:27:13Z</time></trkpt>
<trkpt lat="46.99422900" lon="6.89097900"><ele>667.2899778888</ele><time>2011-10-11T13:27:17Z</time></trkpt>
<trkpt lat="46.99430500" lon="6.89080400"><ele>669.2199705744</ele><time>2011-10-11T13:27:23Z</time></trkpt>
<trkpt lat="46.99433600" lon="6.89075400"><ele>669.2199705744</ele><time>2011-10-11T13:27:25Z</time></trkpt>
<trkpt lat="46.99445100" lon="6.89034000"><ele>671.6199950352</ele><time>2011-10-11T13:27:37Z</time></trkpt>
<trkpt lat="46.99451300" lon="6.89003000"><ele>673.0599976416</ele><time>2011-10-11T13:27:46Z</time></trkpt>
<trkpt lat="46.99458000" lon="6.88957500"><ele>674.9799803904</ele><time>2011-10-11T13:27:59Z</time></trkpt>
<trkpt lat="46.99460400" lon="6.88921000"><ele>677.390014788</ele><time>2011-10-11T13:28:10Z</time></trkpt>
<trkpt lat="46.99459800" lon="6.88881400"><ele>679.789977984</ele><time>2011-10-11T13:28:22Z</time></trkpt>
<trkpt lat="46.99457100" lon="6.88855600"><ele>681.2299805904</ele><time>2011-10-11T13:28:30Z</time></trkpt>
<trkpt lat="46.99459900" lon="6.88816000"><ele>685.0800169848</ele><time>2011-10-11T13:28:43Z</time></trkpt>
<trkpt lat="46.99462700" lon="6.88797700"><ele>686.5200195912</ele><time>2011-10-11T13:28:50Z</time></trkpt>
<trkpt lat="46.99465600" lon="6.88755000"><ele>690.3599853936</ele><time>2011-10-11T13:29:04Z</time></trkpt>
<trkpt lat="46.99469300" lon="6.88740100"><ele>691.3300171848</ele><time>2011-10-11T13:29:09Z</time></trkpt>
<trkpt lat="46.99472900" lon="6.88718900"><ele>693.2499999336</ele><time>2011-10-11T13:29:16Z</time></trkpt>
<trkpt lat="46.99479500" lon="6.88681800"><ele>695.1699829872</ele><time>2011-10-11T13:29:27Z</time></trkpt>
<trkpt lat="46.99482800" lon="6.88647800"><ele>697.570007448</ele><time>2011-10-11T13:29:39Z</time></trkpt>
<trkpt lat="46.99488200" lon="6.88605300"><ele>700.460021988</ele><time>2011-10-11T13:29:53Z</time></trkpt>
<trkpt lat="46.99489800" lon="6.88565800"><ele>702.8599854888</ele><time>2011-10-11T13:30:05Z</time></trkpt>
<trkpt lat="46.99491000" lon="6.88550700"><ele>703.8200073432</ele><time>2011-10-11T13:30:10Z</time></trkpt>
<trkpt lat="46.99491900" lon="6.88541000"><ele>704.7800291976</ele><time>2011-10-11T13:30:14Z</time></trkpt>
<trkpt lat="46.99490200" lon="6.88508900"><ele>706.229980476</ele><time>2011-10-11T13:30:25Z</time></trkpt>
<trkpt lat="46.99485100" lon="6.88473000"><ele>709.5900267912</ele><time>2011-10-11T13:30:37Z</time></trkpt>
<trkpt lat="46.99478500" lon="6.88438800"><ele>711.5100098448</ele><time>2011-10-11T13:30:48Z</time></trkpt>
<trkpt lat="46.99472000" lon="6.88398800"><ele>713.4400025304</ele><time>2011-10-11T13:31:01Z</time></trkpt>
<trkpt lat="46.99465400" lon="6.88362000"><ele>716.3200074384</ele><time>2011-10-11T13:31:13Z</time></trkpt>
<trkpt lat="46.99461800" lon="6.88323500"><ele>718.2399901872</ele><time>2011-10-11T13:31:25Z</time></trkpt>
<trkpt lat="46.99466200" lon="6.88278800"><ele>720.1599732408</ele><time>2011-10-11T13:31:38Z</time></trkpt>
<trkpt lat="46.99484400" lon="6.88245700"><ele>722.5700073336</ele><time>2011-10-11T13:31:50Z</time></trkpt>
<trkpt lat="46.99500400" lon="6.88214000"><ele>724.4899900824</ele><time>2011-10-11T13:32:03Z</time></trkpt>
<trkpt lat="46.99513200" lon="6.88191000"><ele>727.8599853744</ele><time>2011-10-11T13:32:15Z</time></trkpt>
<trkpt lat="46.99531700" lon="6.88157100"><ele>730.7399902824</ele><time>2011-10-11T13:32:27Z</time></trkpt>
<trkpt lat="46.99543800" lon="6.88140700"><ele>732.179992584</ele><time>2011-10-11T13:32:35Z</time></trkpt>
<trkpt lat="46.99553400" lon="6.88122600"><ele>734.0999756376</ele><time>2011-10-11T13:32:43Z</time></trkpt>
<trkpt lat="46.99561300" lon="6.88096400"><ele>736.5100097304</ele><time>2011-10-11T13:32:53Z</time></trkpt>
<trkpt lat="46.99563000" lon="6.88078300"><ele>737.9500123368</ele><time>2011-10-11T13:33:00Z</time></trkpt>
<trkpt lat="46.99560800" lon="6.88045300"><ele>740.3499755328</ele><time>2011-10-11T13:33:13Z</time></trkpt>
<trkpt lat="46.99558500" lon="6.88025900"><ele>742.2800291784</ele><time>2011-10-11T13:33:20Z</time></trkpt>
<trkpt lat="46.99550700" lon="6.87990300"><ele>744.6799926792</ele><time>2011-10-11T13:33:33Z</time></trkpt>
<trkpt lat="46.99546400" lon="6.87964000"><ele>747.5599975872</ele><time>2011-10-11T13:33:44Z</time></trkpt>
<trkpt lat="46.99544600" lon="6.87954300"><ele>748.5200194416</ele><time>2011-10-11T13:33:48Z</time></trkpt>
<trkpt lat="46.99542300" lon="6.87931300"><ele>750.4500121272</ele><time>2011-10-11T13:33:56Z</time></trkpt>
<trkpt lat="46.99538100" lon="6.87895900"><ele>753.8099974824</ele><time>2011-10-11T13:34:09Z</time></trkpt>
<trkpt lat="46.99535600" lon="6.87871400"><ele>755.729980536</ele><time>2011-10-11T13:34:17Z</time></trkpt>
<trkpt lat="46.99533400" lon="6.87848400"><ele>757.1799927744</ele><time>2011-10-11T13:34:25Z</time></trkpt>
<trkpt lat="46.99531300" lon="6.87833300"><ele>758.619995076</ele><time>2011-10-11T13:34:30Z</time></trkpt>
<trkpt lat="46.99535000" lon="6.87809400"><ele>759.5800172352</ele><time>2011-10-11T13:34:37Z</time></trkpt>
<trkpt lat="46.99538500" lon="6.87801000"><ele>760.0599976824</ele><time>2011-10-11T13:34:40Z</time></trkpt>
<trkpt lat="46.99554100" lon="6.87815200"><ele>762.4600218384</ele><time>2011-10-11T13:34:49Z</time></trkpt>
<trkpt lat="46.99563700" lon="6.87847000"><ele>764.390014524</ele><time>2011-10-11T13:35:01Z</time></trkpt>
<trkpt lat="46.99566600" lon="6.87850900"><ele>764.8699949712</ele><time>2011-10-11T13:35:03Z</time></trkpt>
<trkpt lat="46.99584100" lon="6.87891300"><ele>767.7499998792</ele><time>2011-10-11T13:35:18Z</time></trkpt>
<trkpt lat="46.99594700" lon="6.87910300"><ele>769.6699829328</ele><time>2011-10-11T13:35:26Z</time></trkpt>
<trkpt lat="46.99603200" lon="6.87929500"><ele>770.6300047872</ele><time>2011-10-11T13:35:34Z</time></trkpt>
<trkpt lat="46.99623500" lon="6.87964100"><ele>774.0000000792</ele><time>2011-10-11T13:35:49Z</time></trkpt>
<trkpt lat="46.99640500" lon="6.87989100"><ele>775.4400023808</ele><time>2011-10-11T13:36:00Z</time></trkpt>
<trkpt lat="46.99656600" lon="6.88009600"><ele>777.8400268416</ele><time>2011-10-11T13:36:11Z</time></trkpt>
<trkpt lat="46.99681600" lon="6.88030600"><ele>779.28997812</ele><time>2011-10-11T13:36:22Z</time></trkpt>
<trkpt lat="46.99707600" lon="6.88053500"><ele>781.2100218288</ele><time>2011-10-11T13:36:34Z</time></trkpt>
<trkpt lat="46.99729700" lon="6.88068700"><ele>783.6099853296</ele><time>2011-10-11T13:36:45Z</time></trkpt>
<trkpt lat="46.99759900" lon="6.88080600"><ele>785.049987936</ele><time>2011-10-11T13:36:57Z</time></trkpt>
<trkpt lat="46.99782700" lon="6.88087100"><ele>785.5300293432</ele><time>2011-10-11T13:37:06Z</time></trkpt>
<trkpt lat="46.99815500" lon="6.88097900"><ele>787.940002476</ele><time>2011-10-11T13:37:17Z</time></trkpt>
<trkpt lat="46.99823900" lon="6.88100900"><ele>789.3800047776</ele><time>2011-10-11T13:37:21Z</time></trkpt>
<trkpt lat="46.99835000" lon="6.88105900"><ele>790.3400269368</ele><time>2011-10-11T13:37:26Z</time></trkpt>
<trkpt lat="46.99849200" lon="6.88104700"><ele>792.2600096856</ele><time>2011-10-11T13:37:31Z</time></trkpt>
<trkpt lat="46.99859300" lon="6.88096700"><ele>792.7399901328</ele><time>2011-10-11T13:37:36Z</time></trkpt>
<trkpt lat="46.99892400" lon="6.88062100"><ele>793.21997058</ele><time>2011-10-11T13:37:48Z</time></trkpt>
<trkpt lat="46.99917000" lon="6.88032100"><ele>793.21997058</ele><time>2011-10-11T13:37:56Z</time></trkpt>
<trkpt lat="46.99950100" lon="6.87995600"><ele>793.21997058</ele><time>2011-10-11T13:38:06Z</time></trkpt>
<trkpt lat="46.99964000" lon="6.87978700"><ele>792.7399901328</ele><time>2011-10-11T13:38:09Z</time></trkpt>
<trkpt lat="46.99984600" lon="6.87947400"><ele>791.2999878312</ele><time>2011-10-11T13:38:13Z</time></trkpt>
<trkpt lat="46.99994400" lon="6.87934500"><ele>791.2999878312</ele><time>2011-10-11T13:38:15Z</time></trkpt>
<trkpt lat="47.00014700" lon="6.87915100"><ele>790.820007384</ele><time>2011-10-11T13:38:19Z</time></trkpt>
<trkpt lat="47.00031300" lon="6.87894700"><ele>791.2999878312</ele><time>2011-10-11T13:38:23Z</time></trkpt>
<trkpt lat="47.00060500" lon="6.87845800"><ele>795.1500245304</ele><time>2011-10-11T13:38:34Z</time></trkpt>
<trkpt lat="47.00094400" lon="6.87782400"><ele>796.1099854248</ele><time>2011-10-11T13:38:48Z</time></trkpt>
<trkpt lat="47.00109400" lon="6.87728500"><ele>798.5100098856</ele><time>2011-10-11T13:39:01Z</time></trkpt>
<trkpt lat="47.00114500" lon="6.87714400"><ele>799.46997078</ele><time>2011-10-11T13:39:05Z</time></trkpt>
<trkpt lat="47.00125600" lon="6.87696100"><ele>802.8400267272</ele><time>2011-10-11T13:39:12Z</time></trkpt>
<trkpt lat="47.00129500" lon="6.87692700"><ele>803.3200071744</ele><time>2011-10-11T13:39:14Z</time></trkpt>
<trkpt lat="47.00151700" lon="6.87676600"><ele>807.1599732816</ele><time>2011-10-11T13:39:24Z</time></trkpt>
<trkpt lat="47.00176700" lon="6.87646100"><ele>809.0900269272</ele><time>2011-10-11T13:39:37Z</time></trkpt>
<trkpt lat="47.00207300" lon="6.87606500"><ele>810.0499878216</ele><time>2011-10-11T13:39:50Z</time></trkpt>
<trkpt lat="47.00219500" lon="6.87586700"><ele>811.010009676</ele><time>2011-10-11T13:39:56Z</time></trkpt>
<trkpt lat="47.00204500" lon="6.87567000"><ele>811.9699705704</ele><time>2011-10-11T13:40:02Z</time></trkpt>
<trkpt lat="47.00153600" lon="6.87512000"><ele>814.3699950312</ele><time>2011-10-11T13:40:20Z</time></trkpt>
<trkpt lat="47.00123500" lon="6.87491600"><ele>814.8499754784</ele><time>2011-10-11T13:40:29Z</time></trkpt>
<trkpt lat="47.00096100" lon="6.87505200"><ele>813.4099731768</ele><time>2011-10-11T13:40:35Z</time></trkpt>
<trkpt lat="47.00085500" lon="6.87518400"><ele>812.9299927296</ele><time>2011-10-11T13:40:37Z</time></trkpt>
<trkpt lat="47.00050300" lon="6.87514300"><ele>809.0900269272</ele><time>2011-10-11T13:40:43Z</time></trkpt>
<trkpt lat="47.00046200" lon="6.87505100"><ele>809.0900269272</ele><time>2011-10-11T13:40:44Z</time></trkpt>
<trkpt lat="47.00015900" lon="6.87421900"><ele>806.6799925296</ele><time>2011-10-11T13:40:53Z</time></trkpt>
<trkpt lat="47.00005300" lon="6.87392200"><ele>806.6799925296</ele><time>2011-10-11T13:40:57Z</time></trkpt>
<trkpt lat="47.00001500" lon="6.87371400"><ele>807.1599732816</ele><time>2011-10-11T13:41:00Z</time></trkpt>
<trkpt lat="46.99999000" lon="6.87358100"><ele>807.1599732816</ele><time>2011-10-11T13:41:02Z</time></trkpt>
<trkpt lat="46.99989000" lon="6.87336700"><ele>808.130004768</ele><time>2011-10-11T13:41:06Z</time></trkpt>
<trkpt lat="46.99967300" lon="6.87323800"><ele>807.6400146888</ele><time>2011-10-11T13:41:11Z</time></trkpt>
<trkpt lat="46.99907000" lon="6.87301900"><ele>811.010009676</ele><time>2011-10-11T13:41:25Z</time></trkpt>
<trkpt lat="46.99883100" lon="6.87279400"><ele>813.4099731768</ele><time>2011-10-11T13:41:33Z</time></trkpt>
<trkpt lat="46.99870200" lon="6.87250300"><ele>817.260009876</ele><time>2011-10-11T13:41:41Z</time></trkpt>
<trkpt lat="46.99864300" lon="6.87205700"><ele>819.1799926248</ele><time>2011-10-11T13:41:52Z</time></trkpt>
<trkpt lat="46.99846800" lon="6.87151700"><ele>820.140014784</ele><time>2011-10-11T13:42:04Z</time></trkpt>
<trkpt lat="46.99823800" lon="6.87083700"><ele>822.0599975328</ele><time>2011-10-11T13:42:19Z</time></trkpt>
<trkpt lat="46.99797700" lon="6.87008000"><ele>823.030029324</ele><time>2011-10-11T13:42:35Z</time></trkpt>
<trkpt lat="46.99774100" lon="6.86929700"><ele>823.9899902184</ele><time>2011-10-11T13:42:51Z</time></trkpt>
<trkpt lat="46.99758400" lon="6.86850600"><ele>824.4699706656</ele><time>2011-10-11T13:43:05Z</time></trkpt>
<trkpt lat="46.99755600" lon="6.86831200"><ele>824.4699706656</ele><time>2011-10-11T13:43:08Z</time></trkpt>
<trkpt lat="46.99744000" lon="6.86749500"><ele>823.5100097712</ele><time>2011-10-11T13:43:19Z</time></trkpt>
<trkpt lat="46.99724000" lon="6.86645100"><ele>823.030029324</ele><time>2011-10-11T13:43:34Z</time></trkpt>
<trkpt lat="46.99708200" lon="6.86537400"><ele>820.140014784</ele><time>2011-10-11T13:43:47Z</time></trkpt>
<trkpt lat="46.99696200" lon="6.86405200"><ele>817.260009876</ele><time>2011-10-11T13:44:00Z</time></trkpt>
<trkpt lat="46.99673800" lon="6.86371200"><ele>815.8200072696</ele><time>2011-10-11T13:44:05Z</time></trkpt>
<trkpt lat="46.99635100" lon="6.86333400"><ele>813.4099731768</ele><time>2011-10-11T13:44:12Z</time></trkpt>
<trkpt lat="46.99609500" lon="6.86180600"><ele>809.5700073744</ele><time>2011-10-11T13:44:26Z</time></trkpt>
<trkpt lat="46.99603000" lon="6.86143900"><ele>808.130004768</ele><time>2011-10-11T13:44:29Z</time></trkpt>
<trkpt lat="46.99590300" lon="6.86042800"><ele>804.2800293336</ele><time>2011-10-11T13:44:37Z</time></trkpt>
<trkpt lat="46.99587200" lon="6.85991100"><ele>800.4400025712</ele><time>2011-10-11T13:44:41Z</time></trkpt>
<trkpt lat="46.99586300" lon="6.85938800"><ele>798.5100098856</ele><time>2011-10-11T13:44:45Z</time></trkpt>
<trkpt lat="46.99585100" lon="6.85910900"><ele>797.5499877264</ele><time>2011-10-11T13:44:47Z</time></trkpt>
<trkpt lat="46.99599400" lon="6.85824800"><ele>793.710021924</ele><time>2011-10-11T13:44:53Z</time></trkpt>
<trkpt lat="46.99607600" lon="6.85756600"><ele>791.2999878312</ele><time>2011-10-11T13:44:58Z</time></trkpt>
<trkpt lat="46.99604000" lon="6.85694700"><ele>788.4199829232</ele><time>2011-10-11T13:45:02Z</time></trkpt>
<trkpt lat="46.99599300" lon="6.85650800"><ele>787.940002476</ele><time>2011-10-11T13:45:05Z</time></trkpt>
<trkpt lat="46.99593600" lon="6.85625800"><ele>786.9799803168</ele><time>2011-10-11T13:45:07Z</time></trkpt>
<trkpt lat="46.99573400" lon="6.85582600"><ele>785.049987936</ele><time>2011-10-11T13:45:11Z</time></trkpt>
<trkpt lat="46.99564400" lon="6.85562100"><ele>784.0900267368</ele><time>2011-10-11T13:45:13Z</time></trkpt>
<trkpt lat="46.99562000" lon="6.85522900"><ele>782.169983028</ele><time>2011-10-11T13:45:17Z</time></trkpt>
<trkpt lat="46.99574000" lon="6.85506400"><ele>782.169983028</ele><time>2011-10-11T13:45:20Z</time></trkpt>
<trkpt lat="46.99638800" lon="6.85439800"><ele>785.5300293432</ele><time>2011-10-11T13:45:37Z</time></trkpt>
<trkpt lat="46.99657800" lon="6.85419300"><ele>786.4999998696</ele><time>2011-10-11T13:45:42Z</time></trkpt>
<trkpt lat="46.99675900" lon="6.85406800"><ele>786.4999998696</ele><time>2011-10-11T13:45:46Z</time></trkpt>
<trkpt lat="46.99702800" lon="6.85407900"><ele>786.4999998696</ele><time>2011-10-11T13:45:51Z</time></trkpt>
<trkpt lat="46.99727600" lon="6.85420400"><ele>786.9799803168</ele><time>2011-10-11T13:45:56Z</time></trkpt>
<trkpt lat="46.99771500" lon="6.85451300"><ele>790.3400269368</ele><time>2011-10-11T13:46:06Z</time></trkpt>
<trkpt lat="46.99844000" lon="6.85482300"><ele>790.3400269368</ele><time>2011-10-11T13:46:21Z</time></trkpt>
<trkpt lat="46.99850600" lon="6.85483800"><ele>789.8599852248</ele><time>2011-10-11T13:46:22Z</time></trkpt>
<trkpt lat="46.99926100" lon="6.85529100"><ele>789.8599852248</ele><time>2011-10-11T13:46:36Z</time></trkpt>
<trkpt lat="46.99972000" lon="6.85584100"><ele>791.7800292384</ele><time>2011-10-11T13:46:48Z</time></trkpt>
<trkpt lat="46.99979900" lon="6.85594100"><ele>792.2600096856</ele><time>2011-10-11T13:46:50Z</time></trkpt>
<trkpt lat="47.00067700" lon="6.85681100"><ele>792.2600096856</ele><time>2011-10-11T13:47:10Z</time></trkpt>
<trkpt lat="47.00142500" lon="6.85743600"><ele>793.710021924</ele><time>2011-10-11T13:47:26Z</time></trkpt>
<trkpt lat="47.00214700" lon="6.85781300"><ele>796.1099854248</ele><time>2011-10-11T13:47:41Z</time></trkpt>
<trkpt lat="47.00237500" lon="6.85796000"><ele>796.590026832</ele><time>2011-10-11T13:47:46Z</time></trkpt>
<trkpt lat="47.00246500" lon="6.85800200"><ele>797.0700072792</ele><time>2011-10-11T13:47:48Z</time></trkpt>
<trkpt lat="47.00304300" lon="6.85836300"><ele>798.9899903328</ele><time>2011-10-11T13:48:01Z</time></trkpt>
<trkpt lat="47.00338600" lon="6.85830600"><ele>800.9199830184</ele><time>2011-10-11T13:48:10Z</time></trkpt>
<trkpt lat="47.00351200" lon="6.85810200"><ele>801.8800048728</ele><time>2011-10-11T13:48:15Z</time></trkpt>
<trkpt lat="47.00349400" lon="6.85781700"><ele>802.35998532</ele><time>2011-10-11T13:48:20Z</time></trkpt>
<trkpt lat="47.00342100" lon="6.85770800"><ele>802.35998532</ele><time>2011-10-11T13:48:22Z</time></trkpt>
<trkpt lat="47.00300500" lon="6.85671400"><ele>799.46997078</ele><time>2011-10-11T13:48:34Z</time></trkpt>
<trkpt lat="47.00242500" lon="6.85537700"><ele>798.5100098856</ele><time>2011-10-11T13:48:50Z</time></trkpt>
<trkpt lat="47.00166300" lon="6.85465500"><ele>797.5499877264</ele><time>2011-10-11T13:49:04Z</time></trkpt>
<trkpt lat="47.00115300" lon="6.85366500"><ele>797.5499877264</ele><time>2011-10-11T13:49:17Z</time></trkpt>
<trkpt lat="47.00068500" lon="6.85200100"><ele>796.1099854248</ele><time>2011-10-11T13:49:35Z</time></trkpt>
<trkpt lat="46.99994400" lon="6.85012000"><ele>794.6699828184</ele><time>2011-10-11T13:49:57Z</time></trkpt>
<trkpt lat="46.99935600" lon="6.84879700"><ele>794.6699828184</ele><time>2011-10-11T13:50:13Z</time></trkpt>
<trkpt lat="46.99882000" lon="6.84752200"><ele>795.6300049776</ele><time>2011-10-11T13:50:29Z</time></trkpt>
<trkpt lat="46.99803600" lon="6.84651100"><ele>795.6300049776</ele><time>2011-10-11T13:50:46Z</time></trkpt>
<trkpt lat="46.99737900" lon="6.84535200"><ele>795.6300049776</ele><time>2011-10-11T13:51:03Z</time></trkpt>
<trkpt lat="46.99690300" lon="6.84446900"><ele>798.0300294384</ele><time>2011-10-11T13:51:17Z</time></trkpt>
<trkpt lat="46.99618700" lon="6.84364900"><ele>798.5100098856</ele><time>2011-10-11T13:51:35Z</time></trkpt>
<trkpt lat="46.99610500" lon="6.84357100"><ele>798.5100098856</ele><time>2011-10-11T13:51:37Z</time></trkpt>
<trkpt lat="46.99594800" lon="6.84339500"><ele>798.5100098856</ele><time>2011-10-11T13:51:41Z</time></trkpt>
<trkpt lat="46.99594700" lon="6.84307000"><ele>798.0300294384</ele><time>2011-10-11T13:51:47Z</time></trkpt>
<trkpt lat="46.99599900" lon="6.84305700"><ele>797.5499877264</ele><time>2011-10-11T13:51:48Z</time></trkpt>
<trkpt lat="46.99658700" lon="6.84299100"><ele>797.5499877264</ele><time>2011-10-11T13:51:59Z</time></trkpt>
<trkpt lat="46.99701300" lon="6.84276700"><ele>800.9199830184</ele><time>2011-10-11T13:52:12Z</time></trkpt>
<trkpt lat="46.99738400" lon="6.84235100"><ele>803.3200071744</ele><time>2011-10-11T13:52:26Z</time></trkpt>
<trkpt lat="46.99769200" lon="6.84199700"><ele>805.7199706752</ele><time>2011-10-11T13:52:38Z</time></trkpt>
<trkpt lat="46.99808400" lon="6.84157700"><ele>808.6099852152</ele><time>2011-10-11T13:52:54Z</time></trkpt>
<trkpt lat="46.99834400" lon="6.84143600"><ele>811.9699705704</ele><time>2011-10-11T13:53:06Z</time></trkpt>
<trkpt lat="46.99863100" lon="6.84145700"><ele>814.8499754784</ele><time>2011-10-11T13:53:19Z</time></trkpt>
<trkpt lat="46.99894700" lon="6.84149700"><ele>818.2199707704</ele><time>2011-10-11T13:53:33Z</time></trkpt>
<trkpt lat="46.99912400" lon="6.84170700"><ele>821.5800170856</ele><time>2011-10-11T13:53:44Z</time></trkpt>
<trkpt lat="46.99913800" lon="6.84172900"><ele>822.0599975328</ele><time>2011-10-11T13:53:45Z</time></trkpt>
<trkpt lat="46.99939300" lon="6.84186500"><ele>824.9500120728</ele><time>2011-10-11T13:53:58Z</time></trkpt>
<trkpt lat="46.99964800" lon="6.84194900"><ele>827.8300169808</ele><time>2011-10-11T13:54:12Z</time></trkpt>
<trkpt lat="46.99992100" lon="6.84207900"><ele>830.7199705608</ele><time>2011-10-11T13:54:28Z</time></trkpt>
<trkpt lat="47.00004000" lon="6.84213900"><ele>832.1599731672</ele><time>2011-10-11T13:54:35Z</time></trkpt>
<trkpt lat="47.00011500" lon="6.84220200"><ele>833.1199950216</ele><time>2011-10-11T13:54:40Z</time></trkpt>
<trkpt lat="47.00027300" lon="6.84236700"><ele>835.0399780752</ele><time>2011-10-11T13:54:50Z</time></trkpt>
<trkpt lat="47.00048600" lon="6.84255600"><ele>837.450012168</ele><time>2011-10-11T13:55:03Z</time></trkpt>
<trkpt lat="47.00073400" lon="6.84266500"><ele>839.8499756688</ele><time>2011-10-11T13:55:16Z</time></trkpt>
<trkpt lat="47.00095500" lon="6.84259200"><ele>843.210021984</ele><time>2011-10-11T13:55:28Z</time></trkpt>
<trkpt lat="47.00116700" lon="6.84242900"><ele>845.6199951168</ele><time>2011-10-11T13:55:40Z</time></trkpt>
<trkpt lat="47.00137100" lon="6.84232500"><ele>848.0200195776</ele><time>2011-10-11T13:55:52Z</time></trkpt>
<trkpt lat="47.00158400" lon="6.84221200"><ele>850.4199827736</ele><time>2011-10-11T13:56:05Z</time></trkpt>
<trkpt lat="47.00176400" lon="6.84214900"><ele>853.7899780656</ele><time>2011-10-11T13:56:17Z</time></trkpt>
<trkpt lat="47.00193500" lon="6.84214900"><ele>855.7100220792</ele><time>2011-10-11T13:56:28Z</time></trkpt>
<trkpt lat="47.00199100" lon="6.84218600"><ele>856.1900025264</ele><time>2011-10-11T13:56:31Z</time></trkpt>
<trkpt lat="47.00224600" lon="6.84217900"><ele>859.0800170664</ele><time>2011-10-11T13:56:44Z</time></trkpt>
<trkpt lat="47.00234400" lon="6.84219200"><ele>860.0399779608</ele><time>2011-10-11T13:56:49Z</time></trkpt>
<trkpt lat="47.00260400" lon="6.84225100"><ele>861.9600219744</ele><time>2011-10-11T13:57:02Z</time></trkpt>
<trkpt lat="47.00271200" lon="6.84223900"><ele>863.880005028</ele><time>2011-10-11T13:57:08Z</time></trkpt>
<trkpt lat="47.00294400" lon="6.84212700"><ele>867.7299804624</ele><time>2011-10-11T13:57:23Z</time></trkpt>
<trkpt lat="47.00311700" lon="6.84197100"><ele>870.6099853704</ele><time>2011-10-11T13:57:36Z</time></trkpt>
<trkpt lat="47.00315700" lon="6.84194700"><ele>871.5700072248</ele><time>2011-10-11T13:57:39Z</time></trkpt>
<trkpt lat="47.00324500" lon="6.84189000"><ele>873.0100098312</ele><time>2011-10-11T13:57:46Z</time></trkpt>
<trkpt lat="47.00327200" lon="6.84186800"><ele>873.4999999104</ele><time>2011-10-11T13:57:48Z</time></trkpt>
<trkpt lat="47.00335100" lon="6.84179100"><ele>874.9400025168</ele><time>2011-10-11T13:57:53Z</time></trkpt>
<trkpt lat="47.00348400" lon="6.84175900"><ele>876.8599852656</ele><time>2011-10-11T13:58:02Z</time></trkpt>
<trkpt lat="47.00359100" lon="6.84170700"><ele>878.299987872</ele><time>2011-10-11T13:58:08Z</time></trkpt>
<trkpt lat="47.00370700" lon="6.84168700"><ele>880.2199706208</ele><time>2011-10-11T13:58:15Z</time></trkpt>
<trkpt lat="47.00395900" lon="6.84164600"><ele>883.1099854656</ele><time>2011-10-11T13:58:30Z</time></trkpt>
<trkpt lat="47.00401500" lon="6.84161400"><ele>884.07000732</ele><time>2011-10-11T13:58:34Z</time></trkpt>
<trkpt lat="47.00413400" lon="6.84154600"><ele>885.0300291744</ele><time>2011-10-11T13:58:42Z</time></trkpt>
<trkpt lat="47.00430800" lon="6.84133900"><ele>887.9099731224</ele><time>2011-10-11T13:58:55Z</time></trkpt>
<trkpt lat="47.00435900" lon="6.84124000"><ele>888.8800049136</ele><time>2011-10-11T13:59:00Z</time></trkpt>
<trkpt lat="47.00437600" lon="6.84115100"><ele>890.3200072152</ele><time>2011-10-11T13:59:04Z</time></trkpt>
<trkpt lat="47.00441600" lon="6.84084800"><ele>893.6799925704</ele><time>2011-10-11T13:59:16Z</time></trkpt>
<trkpt lat="47.00440800" lon="6.84060700"><ele>896.5700074152</ele><time>2011-10-11T13:59:28Z</time></trkpt>
<trkpt lat="47.00432800" lon="6.84044000"><ele>899.9299927704</ele><time>2011-10-11T13:59:40Z</time></trkpt>
<trkpt lat="47.00427900" lon="6.84039600"><ele>900.8900146248</ele><time>2011-10-11T13:59:45Z</time></trkpt>
<trkpt lat="47.00423000" lon="6.84033100"><ele>901.369995072</ele><time>2011-10-11T13:59:50Z</time></trkpt>
<trkpt lat="47.00419300" lon="6.84029200"><ele>902.3300172312</ele><time>2011-10-11T13:59:54Z</time></trkpt>
<trkpt lat="47.00416000" lon="6.84026100"><ele>903.2999877576</ele><time>2011-10-11T13:59:57Z</time></trkpt>
<trkpt lat="47.00400800" lon="6.84009100"><ele>906.6599731128</ele><time>2011-10-11T14:00:11Z</time></trkpt>
<trkpt lat="47.00386700" lon="6.83992800"><ele>909.0599975736</ele><time>2011-10-11T14:00:25Z</time></trkpt>
<trkpt lat="47.00374400" lon="6.83968100"><ele>912.4299925608</ele><time>2011-10-11T14:00:38Z</time></trkpt>
<trkpt lat="47.00368500" lon="6.83944400"><ele>914.8300170216</ele><time>2011-10-11T14:00:51Z</time></trkpt>
<trkpt lat="47.00368300" lon="6.83941400"><ele>915.3099974688</ele><time>2011-10-11T14:00:53Z</time></trkpt>
<trkpt lat="47.00363700" lon="6.83930200"><ele>916.270019628</ele><time>2011-10-11T14:00:59Z</time></trkpt>
<trkpt lat="47.00361700" lon="6.83925800"><ele>916.7500000752</ele><time>2011-10-11T14:01:01Z</time></trkpt>
<trkpt lat="47.00357800" lon="6.83916100"><ele>917.7199706016</ele><time>2011-10-11T14:01:06Z</time></trkpt>
<trkpt lat="47.00354900" lon="6.83911400"><ele>918.6799927608</ele><time>2011-10-11T14:01:09Z</time></trkpt>
<trkpt lat="47.00346400" lon="6.83890800"><ele>922.039978116</ele><time>2011-10-11T14:01:24Z</time></trkpt>
<trkpt lat="47.00338400" lon="6.83867400"><ele>924.929992656</ele><time>2011-10-11T14:01:37Z</time></trkpt>
<trkpt lat="47.00332800" lon="6.83841400"><ele>927.3300171168</ele><time>2011-10-11T14:01:50Z</time></trkpt>
<trkpt lat="47.00328900" lon="6.83823500"><ele>929.7299806176</ele><time>2011-10-11T14:01:59Z</time></trkpt>
<trkpt lat="47.00326100" lon="6.83808300"><ele>930.690002472</ele><time>2011-10-11T14:02:06Z</time></trkpt>
<trkpt lat="47.00326900" lon="6.83801600"><ele>931.1699829192</ele><time>2011-10-11T14:02:09Z</time></trkpt>
<trkpt lat="47.00321600" lon="6.83772400"><ele>934.5399779064</ele><time>2011-10-11T14:02:22Z</time></trkpt>
<trkpt lat="47.00318800" lon="6.83743000"><ele>937.4199828144</ele><time>2011-10-11T14:02:35Z</time></trkpt>
<trkpt lat="47.00314100" lon="6.83716000"><ele>940.7899781064</ele><time>2011-10-11T14:02:48Z</time></trkpt>
<trkpt lat="47.00316700" lon="6.83685000"><ele>943.6699830144</ele><time>2011-10-11T14:03:02Z</time></trkpt>
<trkpt lat="47.00324500" lon="6.83660700"><ele>946.5599975544</ele><time>2011-10-11T14:03:16Z</time></trkpt>
<trkpt lat="47.00325700" lon="6.83657100"><ele>947.0399780016</ele><time>2011-10-11T14:03:18Z</time></trkpt>
<trkpt lat="47.00325700" lon="6.83639400"><ele>948.9600220152</ele><time>2011-10-11T14:03:26Z</time></trkpt>
<trkpt lat="47.00320900" lon="6.83617100"><ele>951.8400269232</ele><time>2011-10-11T14:03:39Z</time></trkpt>
<trkpt lat="47.00320200" lon="6.83609900"><ele>952.7999878176</ele><time>2011-10-11T14:03:43Z</time></trkpt>
<trkpt lat="47.00319700" lon="6.83594500"><ele>954.250000056</ele><time>2011-10-11T14:03:50Z</time></trkpt>
<trkpt lat="47.00319200" lon="6.83581300"><ele>955.2100219104</ele><time>2011-10-11T14:03:56Z</time></trkpt>
<trkpt lat="47.00331800" lon="6.83556200"><ele>958.5700072656</ele><time>2011-10-11T14:04:10Z</time></trkpt>
<trkpt lat="47.00333100" lon="6.83553000"><ele>958.5700072656</ele><time>2011-10-11T14:04:12Z</time></trkpt>
<trkpt lat="47.00335800" lon="6.83525500"><ele>961.4600221104</ele><time>2011-10-11T14:04:26Z</time></trkpt>
<trkpt lat="47.00337200" lon="6.83519900"><ele>961.9400025576</ele><time>2011-10-11T14:04:29Z</time></trkpt>
<trkpt lat="47.00343100" lon="6.83515100"><ele>962.900024412</ele><time>2011-10-11T14:04:34Z</time></trkpt>
<trkpt lat="47.00349800" lon="6.83505600"><ele>964.3400267136</ele><time>2011-10-11T14:04:41Z</time></trkpt>
<trkpt lat="47.00367800" lon="6.83496100"><ele>967.7000120688</ele><time>2011-10-11T14:04:55Z</time></trkpt>
<trkpt lat="47.00373200" lon="6.83493900"><ele>968.1799928208</ele><time>2011-10-11T14:04:59Z</time></trkpt>
<trkpt lat="47.00392200" lon="6.83483900"><ele>971.549987808</ele><time>2011-10-11T14:05:14Z</time></trkpt>
<trkpt lat="47.00394700" lon="6.83482100"><ele>972.0300292152</ele><time>2011-10-11T14:05:16Z</time></trkpt>
<trkpt lat="47.00400000" lon="6.83479700"><ele>972.9899901096</ele><time>2011-10-11T14:05:20Z</time></trkpt>
<trkpt lat="47.00413300" lon="6.83469300"><ele>975.3900145704</ele><time>2011-10-11T14:05:31Z</time></trkpt>
<trkpt lat="47.00431000" lon="6.83453500"><ele>977.7999877032</ele><time>2011-10-11T14:05:46Z</time></trkpt>
<trkpt lat="47.00446300" lon="6.83439100"><ele>980.6799926112</ele><time>2011-10-11T14:05:59Z</time></trkpt>
<trkpt lat="47.00464300" lon="6.83431900"><ele>983.570007456</ele><time>2011-10-11T14:06:13Z</time></trkpt>
<trkpt lat="47.00479900" lon="6.83425100"><ele>986.4500120592</ele><time>2011-10-11T14:06:25Z</time></trkpt>
<trkpt lat="47.00497800" lon="6.83421200"><ele>988.3699951128</ele><time>2011-10-11T14:06:37Z</time></trkpt>
<trkpt lat="47.00511400" lon="6.83421200"><ele>990.7800292056</ele><time>2011-10-11T14:06:46Z</time></trkpt>
<trkpt lat="47.00516200" lon="6.83420600"><ele>991.7399901</ele><time>2011-10-11T14:06:49Z</time></trkpt>
<trkpt lat="47.00520800" lon="6.83418000"><ele>991.7399901</ele><time>2011-10-11T14:06:52Z</time></trkpt>
<trkpt lat="47.00538500" lon="6.83414600"><ele>994.619995008</ele><time>2011-10-11T14:07:05Z</time></trkpt>
<trkpt lat="47.00559300" lon="6.83402100"><ele>997.5100098528</ele><time>2011-10-11T14:07:18Z</time></trkpt>
<trkpt lat="47.00566900" lon="6.83402000"><ele>997.9899903</ele><time>2011-10-11T14:07:24Z</time></trkpt>
<trkpt lat="47.00572300" lon="6.83400800"><ele>998.9500121544</ele><time>2011-10-11T14:07:29Z</time></trkpt>
<trkpt lat="47.00583400" lon="6.83398400"><ele>1000.3900147608</ele><time>2011-10-11T14:07:37Z</time></trkpt>
<trkpt lat="47.00598300" lon="6.83390200"><ele>1001.8300170624</ele><time>2011-10-11T14:07:47Z</time></trkpt>
<trkpt lat="47.00613000" lon="6.83380300"><ele>1003.750000116</ele><time>2011-10-11T14:07:57Z</time></trkpt>
<trkpt lat="47.00618300" lon="6.83378000"><ele>1004.7199706424</ele><time>2011-10-11T14:08:01Z</time></trkpt>
<trkpt lat="47.00628100" lon="6.83378000"><ele>1006.1599732488</ele><time>2011-10-11T14:08:09Z</time></trkpt>
<trkpt lat="47.00642100" lon="6.83373700"><ele>1007.5999755504</ele><time>2011-10-11T14:08:18Z</time></trkpt>
<trkpt lat="47.00646400" lon="6.83373300"><ele>1008.5599977096</ele><time>2011-10-11T14:08:21Z</time></trkpt>
<trkpt lat="47.00660000" lon="6.83374400"><ele>1010.4799804584</ele><time>2011-10-11T14:08:31Z</time></trkpt>
<trkpt lat="47.00675900" lon="6.83372500"><ele>1011.9299926968</ele><time>2011-10-11T14:08:40Z</time></trkpt>
<trkpt lat="47.00697600" lon="6.83372700"><ele>1013.8499754456</ele><time>2011-10-11T14:08:53Z</time></trkpt>
<trkpt lat="47.00716600" lon="6.83374600"><ele>1014.8099976048</ele><time>2011-10-11T14:09:04Z</time></trkpt>
<trkpt lat="47.00730700" lon="6.83375700"><ele>1015.7700194592</ele><time>2011-10-11T14:09:11Z</time></trkpt>
<trkpt lat="47.00752100" lon="6.83371000"><ele>1017.2100220656</ele><time>2011-10-11T14:09:23Z</time></trkpt>
<trkpt lat="47.00773100" lon="6.83364300"><ele>1019.1300048144</ele><time>2011-10-11T14:09:35Z</time></trkpt>
<trkpt lat="47.00801100" lon="6.83360300"><ele>1021.5399779472</ele><time>2011-10-11T14:09:50Z</time></trkpt>
<trkpt lat="47.00816800" lon="6.83360800"><ele>1022.9799805536</ele><time>2011-10-11T14:10:00Z</time></trkpt>
<trkpt lat="47.00839800" lon="6.83352700"><ele>1024.9000242624</ele><time>2011-10-11T14:10:13Z</time></trkpt>
<trkpt lat="47.00867600" lon="6.83346800"><ele>1026.3399659088</ele><time>2011-10-11T14:10:26Z</time></trkpt>
<trkpt lat="47.00894100" lon="6.83350900"><ele>1028.7500000016</ele><time>2011-10-11T14:10:39Z</time></trkpt>
<trkpt lat="47.00912200" lon="6.83349200"><ele>1030.1899413432</ele><time>2011-10-11T14:10:51Z</time></trkpt>
<trkpt lat="47.00913300" lon="6.83349200"><ele>1030.6700440152</ele><time>2011-10-11T14:10:52Z</time></trkpt>
<trkpt lat="47.00916700" lon="6.83348700"><ele>1030.6700440152</ele><time>2011-10-11T14:10:55Z</time></trkpt>
<trkpt lat="47.00938100" lon="6.83344600"><ele>1033.0699462512</ele><time>2011-10-11T14:11:08Z</time></trkpt>
<trkpt lat="47.00943900" lon="6.83341900"><ele>1033.5500489232</ele><time>2011-10-11T14:11:12Z</time></trkpt>
<trkpt lat="47.00949300" lon="6.83338900"><ele>1034.5200194496</ele><time>2011-10-11T14:11:16Z</time></trkpt>
<trkpt lat="47.00951800" lon="6.83339000"><ele>1034.9999998968</ele><time>2011-10-11T14:11:18Z</time></trkpt>
<trkpt lat="47.00965100" lon="6.83334700"><ele>1036.4399415432</ele><time>2011-10-11T14:11:27Z</time></trkpt>
<trkpt lat="47.00976400" lon="6.83328100"><ele>1038.359985252</ele><time>2011-10-11T14:11:37Z</time></trkpt>
<trkpt lat="47.00983800" lon="6.83324000"><ele>1039.8000488184</ele><time>2011-10-11T14:11:43Z</time></trkpt>
<trkpt lat="47.00988700" lon="6.83320600"><ele>1040.7600097128</ele><time>2011-10-11T14:11:47Z</time></trkpt>
<trkpt lat="47.00994500" lon="6.83318600"><ele>1041.729980544</ele><time>2011-10-11T14:11:51Z</time></trkpt>
<trkpt lat="47.01007400" lon="6.83313600"><ele>1042.6899414384</ele><time>2011-10-11T14:12:00Z</time></trkpt>
<trkpt lat="47.01023300" lon="6.83306200"><ele>1044.609985452</ele><time>2011-10-11T14:12:12Z</time></trkpt>
<trkpt lat="47.01030200" lon="6.83305800"><ele>1045.5699463464</ele><time>2011-10-11T14:12:16Z</time></trkpt>
<trkpt lat="47.01049100" lon="6.83298100"><ele>1047.9699708072</ele><time>2011-10-11T14:12:28Z</time></trkpt>
<trkpt lat="47.01065300" lon="6.83280100"><ele>1051.3399657944</ele><time>2011-10-11T14:12:41Z</time></trkpt>
<trkpt lat="47.01072700" lon="6.83265100"><ele>1051.8199462416</ele><time>2011-10-11T14:12:48Z</time></trkpt>
<trkpt lat="47.01082100" lon="6.83244400"><ele>1054.6999511496</ele><time>2011-10-11T14:13:00Z</time></trkpt>
<trkpt lat="47.01087900" lon="6.83224600"><ele>1057.1099852424</ele><time>2011-10-11T14:13:11Z</time></trkpt>
<trkpt lat="47.01094800" lon="6.83208800"><ele>1059.9899901504</ele><time>2011-10-11T14:13:22Z</time></trkpt>
<trkpt lat="47.01095500" lon="6.83205600"><ele>1059.9899901504</ele><time>2011-10-11T14:13:24Z</time></trkpt>
<trkpt lat="47.01098900" lon="6.83195700"><ele>1060.9499510448</ele><time>2011-10-11T14:13:29Z</time></trkpt>
<trkpt lat="47.01100600" lon="6.83178600"><ele>1062.8699950584</ele><time>2011-10-11T14:13:39Z</time></trkpt>
<trkpt lat="47.01100200" lon="6.83172300"><ele>1063.8399658896</ele><time>2011-10-11T14:13:44Z</time></trkpt>
<trkpt lat="47.01097800" lon="6.83162400"><ele>1064.800048704</ele><time>2011-10-11T14:13:49Z</time></trkpt>
<trkpt lat="47.01097400" lon="6.83158200"><ele>1064.800048704</ele><time>2011-10-11T14:13:51Z</time></trkpt>
<trkpt lat="47.01096200" lon="6.83147400"><ele>1065.7600099032</ele><time>2011-10-11T14:13:55Z</time></trkpt>
<trkpt lat="47.01095100" lon="6.83129300"><ele>1067.1999512448</ele><time>2011-10-11T14:14:04Z</time></trkpt>
<trkpt lat="47.01091900" lon="6.83119900"><ele>1068.1600340592</ele><time>2011-10-11T14:14:10Z</time></trkpt>
<trkpt lat="47.01090800" lon="6.83116000"><ele>1069.1199952584</ele><time>2011-10-11T14:14:13Z</time></trkpt>
<trkpt lat="47.01086500" lon="6.83106500"><ele>1070.569946232</ele><time>2011-10-11T14:14:21Z</time></trkpt>
<trkpt lat="47.01079900" lon="6.83091800"><ele>1072.4899902456</ele><time>2011-10-11T14:14:31Z</time></trkpt>
<trkpt lat="47.01077000" lon="6.83083800"><ele>1073.930053812</ele><time>2011-10-11T14:14:35Z</time></trkpt>
<trkpt lat="47.01073800" lon="6.83071200"><ele>1074.4100342592</ele><time>2011-10-11T14:14:40Z</time></trkpt>
<trkpt lat="47.01071900" lon="6.83063500"><ele>1074.8900147064</ele><time>2011-10-11T14:14:44Z</time></trkpt>
<trkpt lat="47.01065000" lon="6.83042100"><ele>1076.81005872</ele><time>2011-10-11T14:14:55Z</time></trkpt>
<trkpt lat="47.01063300" lon="6.83020100"><ele>1079.6999510352</ele><time>2011-10-11T14:15:08Z</time></trkpt>
<trkpt lat="47.01062100" lon="6.83016900"><ele>1080.1800537072</ele><time>2011-10-11T14:15:10Z</time></trkpt>
<trkpt lat="47.01060000" lon="6.83014900"><ele>1080.1800537072</ele><time>2011-10-11T14:15:12Z</time></trkpt>
<trkpt lat="47.01058300" lon="6.83009000"><ele>1081.1400146016</ele><time>2011-10-11T14:15:17Z</time></trkpt>
<trkpt lat="47.01058000" lon="6.82998900"><ele>1082.099975496</ele><time>2011-10-11T14:15:23Z</time></trkpt>
<trkpt lat="47.01056800" lon="6.82989600"><ele>1083.5400390624</ele><time>2011-10-11T14:15:29Z</time></trkpt>
<trkpt lat="47.01055900" lon="6.82983300"><ele>1084.0200195096</ele><time>2011-10-11T14:15:33Z</time></trkpt>
<trkpt lat="47.01054400" lon="6.82976800"><ele>1084.9899903408</ele><time>2011-10-11T14:15:37Z</time></trkpt>
<trkpt lat="47.01050300" lon="6.82967300"><ele>1085.469970788</ele><time>2011-10-11T14:15:43Z</time></trkpt>
<trkpt lat="47.01047100" lon="6.82946900"><ele>1087.8699952488</ele><time>2011-10-11T14:15:55Z</time></trkpt>
<trkpt lat="47.01045400" lon="6.82938300"><ele>1088.349975696</ele><time>2011-10-11T14:16:01Z</time></trkpt>
<trkpt lat="47.01045500" lon="6.82929100"><ele>1089.7900389576</ele><time>2011-10-11T14:16:06Z</time></trkpt>
<trkpt lat="47.01040600" lon="6.82915200"><ele>1091.7099610512</ele><time>2011-10-11T14:16:16Z</time></trkpt>
<trkpt lat="47.01039700" lon="6.82909300"><ele>1092.6800538024</ele><time>2011-10-11T14:16:19Z</time></trkpt>
<trkpt lat="47.01030900" lon="6.82884400"><ele>1095.5600587104</ele><time>2011-10-11T14:16:36Z</time></trkpt>
<trkpt lat="47.01027400" lon="6.82869700"><ele>1097.4799804992</ele><time>2011-10-11T14:16:45Z</time></trkpt>
<trkpt lat="47.01026500" lon="6.82862100"><ele>1098.4399413936</ele><time>2011-10-11T14:16:49Z</time></trkpt>
<trkpt lat="47.01024500" lon="6.82855700"><ele>1098.9200440656</ele><time>2011-10-11T14:16:53Z</time></trkpt>
<trkpt lat="47.01024000" lon="6.82841900"><ele>1100.3699950392</ele><time>2011-10-11T14:17:02Z</time></trkpt>
<trkpt lat="47.01020800" lon="6.82818400"><ele>1103.2499999472</ele><time>2011-10-11T14:17:16Z</time></trkpt>
<trkpt lat="47.01016500" lon="6.82802500"><ele>1104.6899412888</ele><time>2011-10-11T14:17:25Z</time></trkpt>
<trkpt lat="47.01015800" lon="6.82793600"><ele>1106.1300048552</ele><time>2011-10-11T14:17:30Z</time></trkpt>
<trkpt lat="47.01011800" lon="6.82777800"><ele>1107.5799561336</ele><time>2011-10-11T14:17:40Z</time></trkpt>
<trkpt lat="47.01002900" lon="6.82756100"><ele>1110.4599610416</ele><time>2011-10-11T14:17:54Z</time></trkpt>
<trkpt lat="47.01000000" lon="6.82746000"><ele>1111.9000243032</ele><time>2011-10-11T14:18:00Z</time></trkpt>
<trkpt lat="47.00996500" lon="6.82737300"><ele>1113.3399659496</ele><time>2011-10-11T14:18:07Z</time></trkpt>
<trkpt lat="47.00995500" lon="6.82727500"><ele>1114.3100587008</ele><time>2011-10-11T14:18:13Z</time></trkpt>
<trkpt lat="47.00992200" lon="6.82714000"><ele>1115.2700195952</ele><time>2011-10-11T14:18:20Z</time></trkpt>
<trkpt lat="47.00981000" lon="6.82688900"><ele>1117.189941384</ele><time>2011-10-11T14:18:35Z</time></trkpt>
<trkpt lat="47.00980700" lon="6.82687100"><ele>1117.670044056</ele><time>2011-10-11T14:18:36Z</time></trkpt>
<trkpt lat="47.00974100" lon="6.82670700"><ele>1119.1099853976</ele><time>2011-10-11T14:18:48Z</time></trkpt>
<trkpt lat="47.00973600" lon="6.82669000"><ele>1119.1099853976</ele><time>2011-10-11T14:18:49Z</time></trkpt>
<trkpt lat="47.00967000" lon="6.82658800"><ele>1120.069946292</ele><time>2011-10-11T14:18:55Z</time></trkpt>
<trkpt lat="47.00953100" lon="6.82633500"><ele>1122.959960832</ele><time>2011-10-11T14:19:11Z</time></trkpt>
<trkpt lat="47.00940500" lon="6.82614800"><ele>1124.4000243984</ele><time>2011-10-11T14:19:24Z</time></trkpt>
<trkpt lat="47.00928300" lon="6.82599700"><ele>1126.8000488592</ele><time>2011-10-11T14:19:37Z</time></trkpt>
<trkpt lat="47.00914300" lon="6.82581000"><ele>1129.209961032</ele><time>2011-10-11T14:19:52Z</time></trkpt>
<trkpt lat="47.00903700" lon="6.82559500"><ele>1131.1300047408</ele><time>2011-10-11T14:20:05Z</time></trkpt>
<trkpt lat="47.00899900" lon="6.82542900"><ele>1132.08996594</ele><time>2011-10-11T14:20:15Z</time></trkpt>
<trkpt lat="47.00893100" lon="6.82528500"><ele>1133.5300292016</ele><time>2011-10-11T14:20:24Z</time></trkpt>
<trkpt lat="47.00887400" lon="6.82509500"><ele>1135.4499512952</ele><time>2011-10-11T14:20:37Z</time></trkpt>
<trkpt lat="47.00884800" lon="6.82505100"><ele>1135.9399413744</ele><time>2011-10-11T14:20:40Z</time></trkpt>
<trkpt lat="47.00883400" lon="6.82501000"><ele>1136.4200440464</ele><time>2011-10-11T14:20:43Z</time></trkpt>
<trkpt lat="47.00881200" lon="6.82497700"><ele>1136.4200440464</ele><time>2011-10-11T14:20:45Z</time></trkpt>
<trkpt lat="47.00871200" lon="6.82469500"><ele>1137.859985388</ele><time>2011-10-11T14:20:58Z</time></trkpt>
<trkpt lat="47.00867400" lon="6.82459800"><ele>1138.3399658352</ele><time>2011-10-11T14:21:02Z</time></trkpt>
<trkpt lat="47.00856800" lon="6.82432400"><ele>1140.2600098488</ele><time>2011-10-11T14:21:15Z</time></trkpt>
<trkpt lat="47.00855400" lon="6.82426600"><ele>1140.739990296</ele><time>2011-10-11T14:21:18Z</time></trkpt>
<trkpt lat="47.00846200" lon="6.82398600"><ele>1142.6600343096</ele><time>2011-10-11T14:21:32Z</time></trkpt>
<trkpt lat="47.00842700" lon="6.82386900"><ele>1143.630004836</ele><time>2011-10-11T14:21:37Z</time></trkpt>
<trkpt lat="47.00840000" lon="6.82380400"><ele>1144.1099852832</ele><time>2011-10-11T14:21:40Z</time></trkpt>
<trkpt lat="47.00832300" lon="6.82366200"><ele>1145.5500488496</ele><time>2011-10-11T14:21:50Z</time></trkpt>
<trkpt lat="47.00827900" lon="6.82357400"><ele>1146.510009744</ele><time>2011-10-11T14:21:56Z</time></trkpt>
<trkpt lat="47.00820000" lon="6.82329000"><ele>1148.9100342048</ele><time>2011-10-11T14:22:12Z</time></trkpt>
<trkpt lat="47.00817000" lon="6.82317400"><ele>1150.3499755464</ele><time>2011-10-11T14:22:19Z</time></trkpt>
<trkpt lat="47.00816100" lon="6.82306000"><ele>1151.3199463776</ele><time>2011-10-11T14:22:25Z</time></trkpt>
<trkpt lat="47.00814400" lon="6.82299000"><ele>1152.280029192</ele><time>2011-10-11T14:22:30Z</time></trkpt>
<trkpt lat="47.00813300" lon="6.82292900"><ele>1152.7600096392</ele><time>2011-10-11T14:22:33Z</time></trkpt>
<trkpt lat="47.00811100" lon="6.82283600"><ele>1153.7199708384</ele><time>2011-10-11T14:22:39Z</time></trkpt>
<trkpt lat="47.00808600" lon="6.82273800"><ele>1155.6400145472</ele><time>2011-10-11T14:22:47Z</time></trkpt>
<trkpt lat="47.00807100" lon="6.82269100"><ele>1156.1199949944</ele><time>2011-10-11T14:22:50Z</time></trkpt>
<trkpt lat="47.00804000" lon="6.82251000"><ele>1158.530029392</ele><time>2011-10-11T14:23:02Z</time></trkpt>
<trkpt lat="47.00802600" lon="6.82223800"><ele>1161.8900147472</ele><time>2011-10-11T14:23:18Z</time></trkpt>
<trkpt lat="47.00800800" lon="6.82204000"><ele>1164.290039208</ele><time>2011-10-11T14:23:30Z</time></trkpt>
<trkpt lat="47.00800400" lon="6.82202700"><ele>1164.290039208</ele><time>2011-10-11T14:23:31Z</time></trkpt>
<trkpt lat="47.00798800" lon="6.82185600"><ele>1166.699951076</ele><time>2011-10-11T14:23:44Z</time></trkpt>
<trkpt lat="47.00797800" lon="6.82182800"><ele>1167.180053748</ele><time>2011-10-11T14:23:46Z</time></trkpt>
<trkpt lat="47.00793200" lon="6.82170600"><ele>1169.0999755368</ele><time>2011-10-11T14:23:55Z</time></trkpt>
<trkpt lat="47.00792000" lon="6.82168700"><ele>1169.579955984</ele><time>2011-10-11T14:23:57Z</time></trkpt>
<trkpt lat="47.00789600" lon="6.82148700"><ele>1171.9799804448</ele><time>2011-10-11T14:24:09Z</time></trkpt>
<trkpt lat="47.00787400" lon="6.82137100"><ele>1173.4300536432</ele><time>2011-10-11T14:24:17Z</time></trkpt>
<trkpt lat="47.00784100" lon="6.82120600"><ele>1175.829956184</ele><time>2011-10-11T14:24:28Z</time></trkpt>
<trkpt lat="47.00778900" lon="6.82104300"><ele>1177.7499998928</ele><time>2011-10-11T14:24:40Z</time></trkpt>
<trkpt lat="47.00776800" lon="6.82091800"><ele>1180.6400147376</ele><time>2011-10-11T14:24:50Z</time></trkpt>
<trkpt lat="47.00774500" lon="6.82088500"><ele>1181.599975632</ele><time>2011-10-11T14:24:53Z</time></trkpt>
<trkpt lat="47.00765600" lon="6.82069500"><ele>1183.0400391984</ele><time>2011-10-11T14:25:04Z</time></trkpt>
<trkpt lat="47.00757700" lon="6.82050800"><ele>1184.47998054</ele><time>2011-10-11T14:25:13Z</time></trkpt>
<trkpt lat="47.00752800" lon="6.82040300"><ele>1185.4399414344</ele><time>2011-10-11T14:25:19Z</time></trkpt>
<trkpt lat="47.00740500" lon="6.82016300"><ele>1187.36999508</ele><time>2011-10-11T14:25:32Z</time></trkpt>
<trkpt lat="47.00737500" lon="6.82011400"><ele>1187.8499755272</ele><time>2011-10-11T14:25:35Z</time></trkpt>
<trkpt lat="47.00731600" lon="6.81998300"><ele>1188.3299559744</ele><time>2011-10-11T14:25:41Z</time></trkpt>
<trkpt lat="47.00728900" lon="6.81995000"><ele>1188.3299559744</ele><time>2011-10-11T14:25:43Z</time></trkpt>
<trkpt lat="47.00722100" lon="6.81981000"><ele>1189.2900390936</ele><time>2011-10-11T14:25:49Z</time></trkpt>
<trkpt lat="47.00712400" lon="6.81959700"><ele>1190.7299804352</ele><time>2011-10-11T14:26:01Z</time></trkpt>
<trkpt lat="47.00711200" lon="6.81955400"><ele>1190.7299804352</ele><time>2011-10-11T14:26:03Z</time></trkpt>
<trkpt lat="47.00706700" lon="6.81946200"><ele>1191.2099608824</ele><time>2011-10-11T14:26:08Z</time></trkpt>
<trkpt lat="47.00694300" lon="6.81908900"><ele>1193.130004896</ele><time>2011-10-11T14:26:24Z</time></trkpt>
<trkpt lat="47.00693500" lon="6.81905500"><ele>1193.6099853432</ele><time>2011-10-11T14:26:26Z</time></trkpt>
<trkpt lat="47.00685200" lon="6.81875800"><ele>1195.5400389888</ele><time>2011-10-11T14:26:41Z</time></trkpt>
<trkpt lat="47.00682600" lon="6.81869600"><ele>1196.020019436</ele><time>2011-10-11T14:26:44Z</time></trkpt>
<trkpt lat="47.00678000" lon="6.81850800"><ele>1196.9799803304</ele><time>2011-10-11T14:26:52Z</time></trkpt>
<trkpt lat="47.00681100" lon="6.81839100"><ele>1198.900024344</ele><time>2011-10-11T14:26:59Z</time></trkpt>
<trkpt lat="47.00695700" lon="6.81837200"><ele>1201.7900391888</ele><time>2011-10-11T14:27:12Z</time></trkpt>
<trkpt lat="47.00696800" lon="6.81837100"><ele>1201.7900391888</ele><time>2011-10-11T14:27:13Z</time></trkpt>
<trkpt lat="47.00704100" lon="6.81840200"><ele>1202.7500000832</ele><time>2011-10-11T14:27:19Z</time></trkpt>
<trkpt lat="47.00706100" lon="6.81842500"><ele>1203.2299805304</ele><time>2011-10-11T14:27:21Z</time></trkpt>
<trkpt lat="47.00712300" lon="6.81846200"><ele>1203.7099609776</ele><time>2011-10-11T14:27:26Z</time></trkpt>
<trkpt lat="47.00725100" lon="6.81850200"><ele>1205.150024544</ele><time>2011-10-11T14:27:36Z</time></trkpt>
<trkpt lat="47.00733600" lon="6.81856200"><ele>1206.1099854384</ele><time>2011-10-11T14:27:43Z</time></trkpt>
<trkpt lat="47.00743700" lon="6.81867700"><ele>1207.5500487</ele><time>2011-10-11T14:27:51Z</time></trkpt>
<trkpt lat="47.00748700" lon="6.81872800"><ele>1208.0300291472</ele><time>2011-10-11T14:27:56Z</time></trkpt>
<trkpt lat="47.00758400" lon="6.81877600"><ele>1209.9599608728</ele><time>2011-10-11T14:28:03Z</time></trkpt>
<trkpt lat="47.00767200" lon="6.81888200"><ele>1210.43994132</ele><time>2011-10-11T14:28:11Z</time></trkpt>
<trkpt lat="47.00778500" lon="6.81899100"><ele>1212.3599853336</ele><time>2011-10-11T14:28:22Z</time></trkpt>
<trkpt lat="47.00789900" lon="6.81911600"><ele>1214.2800293472</ele><time>2011-10-11T14:28:33Z</time></trkpt>
<trkpt lat="47.00804600" lon="6.81923200"><ele>1216.2099610728</ele><time>2011-10-11T14:28:45Z</time></trkpt>
<trkpt lat="47.00820800" lon="6.81936600"><ele>1218.1300047816</ele><time>2011-10-11T14:28:58Z</time></trkpt>
<trkpt lat="47.00831600" lon="6.81941100"><ele>1220.0500487952</ele><time>2011-10-11T14:29:08Z</time></trkpt>
<trkpt lat="47.00835700" lon="6.81944100"><ele>1220.5300292424</ele><time>2011-10-11T14:29:11Z</time></trkpt>
<trkpt lat="47.00843100" lon="6.81947400"><ele>1221.0100096896</ele><time>2011-10-11T14:29:17Z</time></trkpt>
<trkpt lat="47.00862300" lon="6.81960500"><ele>1222.9300537032</ele><time>2011-10-11T14:29:31Z</time></trkpt>
<trkpt lat="47.00874000" lon="6.81969400"><ele>1224.3800049816</ele><time>2011-10-11T14:29:40Z</time></trkpt>
<trkpt lat="47.00887200" lon="6.81977100"><ele>1225.8199463232</ele><time>2011-10-11T14:29:51Z</time></trkpt>
<trkpt lat="47.00895500" lon="6.81987200"><ele>1227.7399903368</ele><time>2011-10-11T14:30:00Z</time></trkpt>
<trkpt lat="47.00903500" lon="6.81998700"><ele>1229.1800535984</ele><time>2011-10-11T14:30:08Z</time></trkpt>
<trkpt lat="47.00913300" lon="6.82010300"><ele>1230.1400147976</ele><time>2011-10-11T14:30:17Z</time></trkpt>
<trkpt lat="47.00915800" lon="6.82012700"><ele>1230.6199952448</ele><time>2011-10-11T14:30:20Z</time></trkpt>
<trkpt lat="47.00930100" lon="6.82022900"><ele>1231.5899657712</ele><time>2011-10-11T14:30:33Z</time></trkpt>
<trkpt lat="47.00940600" lon="6.82035100"><ele>1233.5100097848</ele><time>2011-10-11T14:30:41Z</time></trkpt>
<trkpt lat="47.00957800" lon="6.82050700"><ele>1235.4300537984</ele><time>2011-10-11T14:30:54Z</time></trkpt>
<trkpt lat="47.00959100" lon="6.82052800"><ele>1236.3900146928</ele><time>2011-10-11T14:30:56Z</time></trkpt>
<trkpt lat="47.00972500" lon="6.82065200"><ele>1237.8299560344</ele><time>2011-10-11T14:31:06Z</time></trkpt>
<trkpt lat="47.00982500" lon="6.82074200"><ele>1239.2800292328</ele><time>2011-10-11T14:31:13Z</time></trkpt>
<trkpt lat="47.00986100" lon="6.82076900"><ele>1240.2399901272</ele><time>2011-10-11T14:31:16Z</time></trkpt>
<trkpt lat="47.00990400" lon="6.82079600"><ele>1240.7199705744</ele><time>2011-10-11T14:31:21Z</time></trkpt>
<trkpt lat="47.00997700" lon="6.82082300"><ele>1241.6800536936</ele><time>2011-10-11T14:31:27Z</time></trkpt>
<trkpt lat="47.00998300" lon="6.82079000"><ele>1241.6800536936</ele><time>2011-10-11T14:31:30Z</time></trkpt>
<trkpt lat="47.00997600" lon="6.82068700"><ele>1243.5999754824</ele><time>2011-10-11T14:31:38Z</time></trkpt>
<trkpt lat="47.00993600" lon="6.82050900"><ele>1246.9699707744</ele><time>2011-10-11T14:31:51Z</time></trkpt>
<trkpt lat="47.00992100" lon="6.82034300"><ele>1250.3299561296</ele><time>2011-10-11T14:32:05Z</time></trkpt>
<trkpt lat="47.00989000" lon="6.82022600"><ele>1251.290038944</ele><time>2011-10-11T14:32:14Z</time></trkpt>
<trkpt lat="47.00987300" lon="6.82007100"><ele>1253.6999511168</ele><time>2011-10-11T14:32:27Z</time></trkpt>
<trkpt lat="47.00984900" lon="6.82002000"><ele>1255.1400146832</ele><time>2011-10-11T14:32:32Z</time></trkpt>
<trkpt lat="47.00975700" lon="6.81986700"><ele>1258.0200195912</ele><time>2011-10-11T14:32:46Z</time></trkpt>
<trkpt lat="47.00969200" lon="6.81969000"><ele>1259.93994138</ele><time>2011-10-11T14:32:58Z</time></trkpt>
<trkpt lat="47.00964100" lon="6.81959100"><ele>1261.3900145784</ele><time>2011-10-11T14:33:05Z</time></trkpt>
<trkpt lat="47.00960700" lon="6.81944800"><ele>1262.82995592</ele><time>2011-10-11T14:33:14Z</time></trkpt>
<trkpt lat="47.00957800" lon="6.81921700"><ele>1264.7499999336</ele><time>2011-10-11T14:33:27Z</time></trkpt>
<trkpt lat="47.00956800" lon="6.81916400"><ele>1265.2299803808</ele><time>2011-10-11T14:33:31Z</time></trkpt>
<trkpt lat="47.00958900" lon="6.81899300"><ele>1268.1199952256</ele><time>2011-10-11T14:33:44Z</time></trkpt>
<trkpt lat="47.00958500" lon="6.81895700"><ele>1269.07995612</ele><time>2011-10-11T14:33:46Z</time></trkpt>
<trkpt lat="47.00958100" lon="6.81892600"><ele>1269.07995612</ele><time>2011-10-11T14:33:48Z</time></trkpt>
<trkpt lat="47.00955400" lon="6.81870200"><ele>1272.4399414752</ele><time>2011-10-11T14:34:01Z</time></trkpt>
<trkpt lat="47.00948700" lon="6.81853500"><ele>1275.3299560152</ele><time>2011-10-11T14:34:14Z</time></trkpt>
<trkpt lat="47.00946500" lon="6.81848500"><ele>1275.8100586872</ele><time>2011-10-11T14:34:17Z</time></trkpt>
<trkpt lat="47.00946800" lon="6.81842600"><ele>1277.2500000288</ele><time>2011-10-11T14:34:21Z</time></trkpt>
<trkpt lat="47.00954200" lon="6.81831900"><ele>1279.1700440424</ele><time>2011-10-11T14:34:30Z</time></trkpt>
<trkpt lat="47.00963700" lon="6.81832000"><ele>1279.1700440424</ele><time>2011-10-11T14:34:37Z</time></trkpt>
<trkpt lat="47.00983800" lon="6.81844200"><ele>1280.1300049368</ele><time>2011-10-11T14:34:50Z</time></trkpt>
<trkpt lat="47.01000600" lon="6.81845700"><ele>1281.0899658312</ele><time>2011-10-11T14:35:01Z</time></trkpt>
<trkpt lat="47.01005400" lon="6.81847700"><ele>1280.609985384</ele><time>2011-10-11T14:35:04Z</time></trkpt>
<trkpt lat="47.01011100" lon="6.81854100"><ele>1282.0600585824</ele><time>2011-10-11T14:35:09Z</time></trkpt>
<trkpt lat="47.01017600" lon="6.81859300"><ele>1283.0200194768</ele><time>2011-10-11T14:35:16Z</time></trkpt>
<trkpt lat="47.01026200" lon="6.81857700"><ele>1284.9399412656</ele><time>2011-10-11T14:35:24Z</time></trkpt>
<trkpt lat="47.01033500" lon="6.81840800"><ele>1286.8599852792</ele><time>2011-10-11T14:35:35Z</time></trkpt>
<trkpt lat="47.01033900" lon="6.81823900"><ele>1288.7800292928</ele><time>2011-10-11T14:35:45Z</time></trkpt>
<trkpt lat="47.01037700" lon="6.81802900"><ele>1290.7099610184</ele><time>2011-10-11T14:35:57Z</time></trkpt>
<trkpt lat="47.01039200" lon="6.81784200"><ele>1292.15002428</ele><time>2011-10-11T14:36:07Z</time></trkpt>
<trkpt lat="47.01036600" lon="6.81767600"><ele>1294.0699463736</ele><time>2011-10-11T14:36:16Z</time></trkpt>
<trkpt lat="47.01028600" lon="6.81740800"><ele>1296.9599609136</ele><time>2011-10-11T14:36:33Z</time></trkpt>
<trkpt lat="47.01021300" lon="6.81717800"><ele>1299.8399658216</ele><time>2011-10-11T14:36:47Z</time></trkpt>
<trkpt lat="47.01011100" lon="6.81694800"><ele>1302.2399902824</ele><time>2011-10-11T14:37:02Z</time></trkpt>
<trkpt lat="47.01000000" lon="6.81670900"><ele>1304.170043928</ele><time>2011-10-11T14:37:17Z</time></trkpt>
<trkpt lat="47.00986300" lon="6.81644200"><ele>1304.6500243752</ele><time>2011-10-11T14:37:32Z</time></trkpt>
<trkpt lat="47.00973800" lon="6.81622300"><ele>1306.0899657168</ele><time>2011-10-11T14:37:45Z</time></trkpt>
<trkpt lat="47.00957700" lon="6.81599800"><ele>1308.4899901776</ele><time>2011-10-11T14:38:01Z</time></trkpt>
<trkpt lat="47.00953300" lon="6.81581400"><ele>1311.8599854696</ele><time>2011-10-11T14:38:12Z</time></trkpt>
<trkpt lat="47.00955400" lon="6.81557000"><ele>1314.7399903776</ele><time>2011-10-11T14:38:25Z</time></trkpt>
<trkpt lat="47.00960600" lon="6.81542500"><ele>1317.1400145336</ele><time>2011-10-11T14:38:34Z</time></trkpt>
<trkpt lat="47.00971000" lon="6.81524000"><ele>1319.0699462592</ele><time>2011-10-11T14:38:48Z</time></trkpt>
<trkpt lat="47.00975900" lon="6.81514200"><ele>1320.9899902728</ele><time>2011-10-11T14:38:55Z</time></trkpt>
<trkpt lat="47.00977100" lon="6.81507100"><ele>1320.9899902728</ele><time>2011-10-11T14:38:59Z</time></trkpt>
<trkpt lat="47.00977700" lon="6.81501700"><ele>1320.9899902728</ele><time>2011-10-11T14:39:02Z</time></trkpt>
<trkpt lat="47.00978000" lon="6.81476400"><ele>1322.9100342864</ele><time>2011-10-11T14:39:16Z</time></trkpt>
<trkpt lat="47.00977200" lon="6.81466800"><ele>1323.3900147336</ele><time>2011-10-11T14:39:21Z</time></trkpt>
<trkpt lat="47.00972700" lon="6.81439600"><ele>1325.8000488264</ele><time>2011-10-11T14:39:37Z</time></trkpt>
<trkpt lat="47.00965500" lon="6.81415300"><ele>1329.1600341816</ele><time>2011-10-11T14:39:52Z</time></trkpt>
<trkpt lat="47.00956700" lon="6.81398100"><ele>1331.0799559704</ele><time>2011-10-11T14:40:05Z</time></trkpt>
<trkpt lat="47.00948300" lon="6.81380900"><ele>1333.9699708152</ele><time>2011-10-11T14:40:18Z</time></trkpt>
<trkpt lat="47.00947800" lon="6.81378000"><ele>1333.9699708152</ele><time>2011-10-11T14:40:20Z</time></trkpt>
<trkpt lat="47.00939300" lon="6.81352400"><ele>1335.4100340768</ele><time>2011-10-11T14:40:35Z</time></trkpt>
<trkpt lat="47.00937800" lon="6.81326000"><ele>1336.3699949712</ele><time>2011-10-11T14:40:49Z</time></trkpt>
<trkpt lat="47.00939800" lon="6.81297000"><ele>1337.3299561704</ele><time>2011-10-11T14:41:03Z</time></trkpt>
<trkpt lat="47.00947000" lon="6.81266300"><ele>1337.8100585376</ele><time>2011-10-11T14:41:18Z</time></trkpt>
<trkpt lat="47.00952600" lon="6.81241000"><ele>1338.770019432</ele><time>2011-10-11T14:41:32Z</time></trkpt>
<trkpt lat="47.00960600" lon="6.81216400"><ele>1340.2199707104</ele><time>2011-10-11T14:41:47Z</time></trkpt>
<trkpt lat="47.00970700" lon="6.81190600"><ele>1343.0999756184</ele><time>2011-10-11T14:42:05Z</time></trkpt>
<trkpt lat="47.00974700" lon="6.81183400"><ele>1344.5400391848</ele><time>2011-10-11T14:42:11Z</time></trkpt>
<trkpt lat="47.00977200" lon="6.81177900"><ele>1345.5000000792</ele><time>2011-10-11T14:42:15Z</time></trkpt>
<trkpt lat="47.00986300" lon="6.81164100"><ele>1347.4300537248</ele><time>2011-10-11T14:42:26Z</time></trkpt>
<trkpt lat="47.00987500" lon="6.81159600"><ele>1347.910034172</ele><time>2011-10-11T14:42:29Z</time></trkpt>
<trkpt lat="47.00995700" lon="6.81141400"><ele>1349.3499755136</ele><time>2011-10-11T14:42:43Z</time></trkpt>
<trkpt lat="47.01007400" lon="6.81125700"><ele>1351.7499999744</ele><time>2011-10-11T14:42:57Z</time></trkpt>
<trkpt lat="47.01015700" lon="6.81108500"><ele>1354.1500244352</ele><time>2011-10-11T14:43:10Z</time></trkpt>
<trkpt lat="47.01028800" lon="6.81092900"><ele>1355.5999757136</ele><time>2011-10-11T14:43:24Z</time></trkpt>
<trkpt lat="47.01037400" lon="6.81086200"><ele>1356.0799561608</ele><time>2011-10-11T14:43:32Z</time></trkpt>
<trkpt lat="47.01053200" lon="6.81065600"><ele>1357.9999998696</ele><time>2011-10-11T14:43:49Z</time></trkpt>
<trkpt lat="47.01064500" lon="6.81042000"><ele>1360.4000243304</ele><time>2011-10-11T14:44:05Z</time></trkpt>
<trkpt lat="47.01071700" lon="6.81023600"><ele>1361.839965672</ele><time>2011-10-11T14:44:18Z</time></trkpt>
<trkpt lat="47.01072100" lon="6.81021800"><ele>1362.329956056</ele><time>2011-10-11T14:44:19Z</time></trkpt>
<trkpt lat="47.01073900" lon="6.81011600"><ele>1363.2900391752</ele><time>2011-10-11T14:44:25Z</time></trkpt>
<trkpt lat="47.01075600" lon="6.80987200"><ele>1366.1700440832</ele><time>2011-10-11T14:44:38Z</time></trkpt>
<trkpt lat="47.01093400" lon="6.80963800"><ele>1368.5699463192</ele><time>2011-10-11T14:44:53Z</time></trkpt>
<trkpt lat="47.01111200" lon="6.80945500"><ele>1367.6099854248</ele><time>2011-10-11T14:45:05Z</time></trkpt>
<trkpt lat="47.01118400" lon="6.80912800"><ele>1368.089965872</ele><time>2011-10-11T14:45:19Z</time></trkpt>
<trkpt lat="47.01115900" lon="6.80882800"><ele>1368.5699463192</ele><time>2011-10-11T14:45:31Z</time></trkpt>
<trkpt lat="47.01115600" lon="6.80878800"><ele>1368.5699463192</ele><time>2011-10-11T14:45:33Z</time></trkpt>
<trkpt lat="47.01115300" lon="6.80877100"><ele>1368.5699463192</ele><time>2011-10-11T14:45:44Z</time></trkpt>
<trkpt lat="47.01115500" lon="6.80877000"><ele>1367.1300049776</ele><time>2011-10-11T14:45:58Z</time></trkpt>
<trkpt lat="47.01115400" lon="6.80877100"><ele>1367.6099854248</ele><time>2011-10-11T14:46:22Z</time></trkpt>
<trkpt lat="47.01114400" lon="6.80877300"><ele>1368.5699463192</ele><time>2011-10-11T14:46:24Z</time></trkpt>
<trkpt lat="47.01115600" lon="6.80878000"><ele>1368.089965872</ele><time>2011-10-11T14:46:34Z</time></trkpt>
<trkpt lat="47.01115800" lon="6.80880600"><ele>1368.5699463192</ele><time>2011-10-11T14:46:37Z</time></trkpt>
<trkpt lat="47.01118200" lon="6.80899300"><ele>1368.089965872</ele><time>2011-10-11T14:46:46Z</time></trkpt>
<trkpt lat="47.01129700" lon="6.80942400"><ele>1367.6099854248</ele><time>2011-10-11T14:47:02Z</time></trkpt>
<trkpt lat="47.01139000" lon="6.80966700"><ele>1368.5699463192</ele><time>2011-10-11T14:47:14Z</time></trkpt>
<trkpt lat="47.01152200" lon="6.80986800"><ele>1369.5400390704</ele><time>2011-10-11T14:47:27Z</time></trkpt>
<trkpt lat="47.01159000" lon="6.80994900"><ele>1370.0200195176</ele><time>2011-10-11T14:47:36Z</time></trkpt>
<trkpt lat="47.01160700" lon="6.80996700"><ele>1370.4999999648</ele><time>2011-10-11T14:47:38Z</time></trkpt>
<trkpt lat="47.01165000" lon="6.81004400"><ele>1372.4200439784</ele><time>2011-10-11T14:47:45Z</time></trkpt>
<trkpt lat="47.01179500" lon="6.81007500"><ele>1375.3000488864</ele><time>2011-10-11T14:47:59Z</time></trkpt>
<trkpt lat="47.01187000" lon="6.81007000"><ele>1376.74999986</ele><time>2011-10-11T14:48:06Z</time></trkpt>
<trkpt lat="47.01199800" lon="6.81007800"><ele>1379.1500243208</ele><time>2011-10-11T14:48:19Z</time></trkpt>
<trkpt lat="47.01213800" lon="6.81007800"><ele>1381.0699464144</ele><time>2011-10-11T14:48:33Z</time></trkpt>
<trkpt lat="47.01215400" lon="6.81008500"><ele>1381.5500487816</ele><time>2011-10-11T14:48:35Z</time></trkpt>
<trkpt lat="47.01226300" lon="6.81011500"><ele>1382.9899901232</ele><time>2011-10-11T14:48:47Z</time></trkpt>
<trkpt lat="47.01229300" lon="6.81012400"><ele>1383.4699705704</ele><time>2011-10-11T14:48:51Z</time></trkpt>
<trkpt lat="47.01234600" lon="6.81013200"><ele>1384.9200440736</ele><time>2011-10-11T14:48:56Z</time></trkpt>
<trkpt lat="47.01237100" lon="6.81014900"><ele>1385.4000245208</ele><time>2011-10-11T14:48:59Z</time></trkpt>
<trkpt lat="47.01240800" lon="6.81015200"><ele>1386.8399658624</ele><time>2011-10-11T14:49:03Z</time></trkpt>
<trkpt lat="47.01246000" lon="6.81015800"><ele>1387.3199463096</ele><time>2011-10-11T14:49:08Z</time></trkpt>
<trkpt lat="47.01247700" lon="6.81015700"><ele>1387.3199463096</ele><time>2011-10-11T14:49:10Z</time></trkpt>
<trkpt lat="47.01261000" lon="6.81014700"><ele>1390.1999512176</ele><time>2011-10-11T14:49:23Z</time></trkpt>
<trkpt lat="47.01276500" lon="6.81016400"><ele>1391.650024416</ele><time>2011-10-11T14:49:37Z</time></trkpt>
<trkpt lat="47.01285400" lon="6.81016600"><ele>1392.6099853104</ele><time>2011-10-11T14:49:45Z</time></trkpt>
<trkpt lat="47.01297900" lon="6.81023700"><ele>1394.0500488768</ele><time>2011-10-11T14:49:56Z</time></trkpt>
<trkpt lat="47.01303200" lon="6.81028200"><ele>1394.530029324</ele><time>2011-10-11T14:50:01Z</time></trkpt>
<trkpt lat="47.01321500" lon="6.81033100"><ele>1395.9699706656</ele><time>2011-10-11T14:50:15Z</time></trkpt>
<trkpt lat="47.01336700" lon="6.81040800"><ele>1396.4499511128</ele><time>2011-10-11T14:50:27Z</time></trkpt>
<trkpt lat="47.01353600" lon="6.81049500"><ele>1397.410034232</ele><time>2011-10-11T14:50:40Z</time></trkpt>
<trkpt lat="47.01374900" lon="6.81059600"><ele>1396.4499511128</ele><time>2011-10-11T14:50:54Z</time></trkpt>
<trkpt lat="47.01394000" lon="6.81062600"><ele>1396.9300537848</ele><time>2011-10-11T14:51:07Z</time></trkpt>
<trkpt lat="47.01406300" lon="6.81072100"><ele>1397.8900146792</ele><time>2011-10-11T14:51:17Z</time></trkpt>
<trkpt lat="47.01413200" lon="6.81078000"><ele>1397.8900146792</ele><time>2011-10-11T14:51:23Z</time></trkpt>
<trkpt lat="47.01420900" lon="6.81080900"><ele>1396.9300537848</ele><time>2011-10-11T14:51:28Z</time></trkpt>
<trkpt lat="47.01439200" lon="6.81089700"><ele>1396.4499511128</ele><time>2011-10-11T14:51:42Z</time></trkpt>
<trkpt lat="47.01445900" lon="6.81089600"><ele>1396.4499511128</ele><time>2011-10-11T14:51:48Z</time></trkpt>
<trkpt lat="47.01449700" lon="6.81086200"><ele>1395.9699706656</ele><time>2011-10-11T14:51:51Z</time></trkpt>
<trkpt lat="47.01464800" lon="6.81094600"><ele>1395.4899902184</ele><time>2011-10-11T14:52:04Z</time></trkpt>
<trkpt lat="47.01470900" lon="6.81104600"><ele>1395.4899902184</ele><time>2011-10-11T14:52:11Z</time></trkpt>
<trkpt lat="47.01475600" lon="6.81109900"><ele>1394.530029324</ele><time>2011-10-11T14:52:16Z</time></trkpt>
<trkpt lat="47.01487000" lon="6.81112000"><ele>1394.530029324</ele><time>2011-10-11T14:52:25Z</time></trkpt>
<trkpt lat="47.01488400" lon="6.81116100"><ele>1393.0899657576</ele><time>2011-10-11T14:52:28Z</time></trkpt>
<trkpt lat="47.01488800" lon="6.81126700"><ele>1390.6800535848</ele><time>2011-10-11T14:52:35Z</time></trkpt>
<trkpt lat="47.01495900" lon="6.81132300"><ele>1388.760009876</ele><time>2011-10-11T14:52:42Z</time></trkpt>
<trkpt lat="47.01504400" lon="6.81139800"><ele>1385.880004968</ele><time>2011-10-11T14:52:51Z</time></trkpt>
<trkpt lat="47.01506600" lon="6.81140600"><ele>1385.880004968</ele><time>2011-10-11T14:52:53Z</time></trkpt>
<trkpt lat="47.01519700" lon="6.81151900"><ele>1382.510009676</ele><time>2011-10-11T14:53:07Z</time></trkpt>
<trkpt lat="47.01520500" lon="6.81153500"><ele>1382.510009676</ele><time>2011-10-11T14:53:10Z</time></trkpt>
<trkpt lat="47.01534300" lon="6.81175200"><ele>1382.9899901232</ele><time>2011-10-11T14:53:23Z</time></trkpt>
<trkpt lat="47.01538200" lon="6.81188200"><ele>1383.9599609544</ele><time>2011-10-11T14:53:31Z</time></trkpt>
<trkpt lat="47.01541200" lon="6.81205600"><ele>1384.4399414016</ele><time>2011-10-11T14:53:40Z</time></trkpt>
<trkpt lat="47.01554100" lon="6.81218600"><ele>1387.3199463096</ele><time>2011-10-11T14:53:55Z</time></trkpt>
<trkpt lat="47.01557200" lon="6.81219500"><ele>1387.8000486768</ele><time>2011-10-11T14:53:59Z</time></trkpt>
<trkpt lat="47.01563500" lon="6.81221200"><ele>1389.7199707704</ele><time>2011-10-11T14:54:07Z</time></trkpt>
<trkpt lat="47.01570000" lon="6.81220900"><ele>1390.6800535848</ele><time>2011-10-11T14:54:14Z</time></trkpt>
<trkpt lat="47.01576000" lon="6.81224400"><ele>1392.6099853104</ele><time>2011-10-11T14:54:22Z</time></trkpt>
<trkpt lat="47.01578100" lon="6.81228200"><ele>1393.0899657576</ele><time>2011-10-11T14:54:27Z</time></trkpt>
<trkpt lat="47.01582300" lon="6.81229800"><ele>1394.0500488768</ele><time>2011-10-11T14:54:31Z</time></trkpt>
<trkpt lat="47.01586300" lon="6.81237400"><ele>1394.530029324</ele><time>2011-10-11T14:54:37Z</time></trkpt>
<trkpt lat="47.01601800" lon="6.81242300"><ele>1395.4899902184</ele><time>2011-10-11T14:54:49Z</time></trkpt>
<trkpt lat="47.01607600" lon="6.81252300"><ele>1395.9699706656</ele><time>2011-10-11T14:54:56Z</time></trkpt>
<trkpt lat="47.01609400" lon="6.81256600"><ele>1395.9699706656</ele><time>2011-10-11T14:54:58Z</time></trkpt>
<trkpt lat="47.01622900" lon="6.81265300"><ele>1396.9300537848</ele><time>2011-10-11T14:55:07Z</time></trkpt>
<trkpt lat="47.01634200" lon="6.81276700"><ele>1396.9300537848</ele><time>2011-10-11T14:55:17Z</time></trkpt>
<trkpt lat="47.01637200" lon="6.81277100"><ele>1397.410034232</ele><time>2011-10-11T14:55:19Z</time></trkpt>
<trkpt lat="47.01648300" lon="6.81285500"><ele>1397.8900146792</ele><time>2011-10-11T14:55:28Z</time></trkpt>
<trkpt lat="47.01656900" lon="6.81297200"><ele>1398.3699951264</ele><time>2011-10-11T14:55:36Z</time></trkpt>
<trkpt lat="47.01661900" lon="6.81299200"><ele>1399.3399659576</ele><time>2011-10-11T14:55:40Z</time></trkpt>
<trkpt lat="47.01664900" lon="6.81304200"><ele>1399.8199464048</ele><time>2011-10-11T14:55:44Z</time></trkpt>
<trkpt lat="47.01681600" lon="6.81313000"><ele>1400.300048772</ele><time>2011-10-11T14:55:58Z</time></trkpt>
<trkpt lat="47.01695700" lon="6.81324100"><ele>1402.2199705608</ele><time>2011-10-11T14:56:11Z</time></trkpt>
<trkpt lat="47.01699400" lon="6.81327900"><ele>1402.2199705608</ele><time>2011-10-11T14:56:16Z</time></trkpt>
<trkpt lat="47.01706800" lon="6.81346000"><ele>1401.7399901136</ele><time>2011-10-11T14:56:26Z</time></trkpt>
<trkpt lat="47.01721300" lon="6.81349500"><ele>1404.1400145744</ele><time>2011-10-11T14:56:39Z</time></trkpt>
<trkpt lat="47.01725700" lon="6.81355000"><ele>1406.0699463</ele><time>2011-10-11T14:56:47Z</time></trkpt>
<trkpt lat="47.01728200" lon="6.81360500"><ele>1407.0300294192</ele><time>2011-10-11T14:56:52Z</time></trkpt>
<trkpt lat="47.01732800" lon="6.81365700"><ele>1407.9899903136</ele><time>2011-10-11T14:56:57Z</time></trkpt>
<trkpt lat="47.01744100" lon="6.81376100"><ele>1409.4300535752</ele><time>2011-10-11T14:57:09Z</time></trkpt>
<trkpt lat="47.01753000" lon="6.81384600"><ele>1410.3900147744</ele><time>2011-10-11T14:57:18Z</time></trkpt>
<trkpt lat="47.01755400" lon="6.81388100"><ele>1410.3900147744</ele><time>2011-10-11T14:57:21Z</time></trkpt>
<trkpt lat="47.01767200" lon="6.81400100"><ele>1411.3499756688</ele><time>2011-10-11T14:57:33Z</time></trkpt>
<trkpt lat="47.01782000" lon="6.81409700"><ele>1414.2399902088</ele><time>2011-10-11T14:57:47Z</time></trkpt>
<trkpt lat="47.01789700" lon="6.81410200"><ele>1416.6400146696</ele><time>2011-10-11T14:58:01Z</time></trkpt>
<trkpt lat="47.01794100" lon="6.81403600"><ele>1418.5600586832</ele><time>2011-10-11T14:58:09Z</time></trkpt>
<trkpt lat="47.01798600" lon="6.81402100"><ele>1418.0799560112</ele><time>2011-10-11T14:58:23Z</time></trkpt>
<trkpt lat="47.01802000" lon="6.81401900"><ele>1418.0799560112</ele><time>2011-10-11T14:58:35Z</time></trkpt>
<trkpt lat="47.01806400" lon="6.81400500"><ele>1415.1999511032</ele><time>2011-10-11T14:58:41Z</time></trkpt>
<trkpt lat="47.01807200" lon="6.81405500"><ele>1416.6400146696</ele><time>2011-10-11T14:58:51Z</time></trkpt>
<trkpt lat="47.01805400" lon="6.81407200"><ele>1418.5600586832</ele><time>2011-10-11T14:58:53Z</time></trkpt>
<trkpt lat="47.01811200" lon="6.81419000"><ele>1420.489990104</ele><time>2011-10-11T14:59:03Z</time></trkpt>
<trkpt lat="47.01815100" lon="6.81424300"><ele>1421.9300536704</ele><time>2011-10-11T14:59:08Z</time></trkpt>
<trkpt lat="47.01819200" lon="6.81429900"><ele>1420.489990104</ele><time>2011-10-11T14:59:13Z</time></trkpt>
<trkpt lat="47.01834900" lon="6.81440400"><ele>1420.0000000248</ele><time>2011-10-11T14:59:24Z</time></trkpt>
<trkpt lat="47.01836500" lon="6.81440900"><ele>1420.0000000248</ele><time>2011-10-11T14:59:25Z</time></trkpt>
<trkpt lat="47.01847200" lon="6.81456000"><ele>1419.5200195776</ele><time>2011-10-11T14:59:32Z</time></trkpt>
<trkpt lat="47.01852700" lon="6.81461600"><ele>1421.4499513032</ele><time>2011-10-11T14:59:37Z</time></trkpt>
<trkpt lat="47.01855900" lon="6.81463400"><ele>1422.8900145648</ele><time>2011-10-11T14:59:40Z</time></trkpt>
<trkpt lat="47.01864700" lon="6.81465400"><ele>1421.9300536704</ele><time>2011-10-11T14:59:46Z</time></trkpt>
<trkpt lat="47.01869200" lon="6.81465000"><ele>1421.9300536704</ele><time>2011-10-11T14:59:48Z</time></trkpt>
<trkpt lat="47.01888600" lon="6.81479100"><ele>1422.8900145648</ele><time>2011-10-11T14:59:59Z</time></trkpt>
<trkpt lat="47.01903700" lon="6.81488500"><ele>1426.24999992</ele><time>2011-10-11T15:00:11Z</time></trkpt>
<trkpt lat="47.01905800" lon="6.81490600"><ele>1426.7299803672</ele><time>2011-10-11T15:00:13Z</time></trkpt>
<trkpt lat="47.01914500" lon="6.81492300"><ele>1428.6600343176</ele><time>2011-10-11T15:00:19Z</time></trkpt>
<trkpt lat="47.01934100" lon="6.81498500"><ele>1428.6600343176</ele><time>2011-10-11T15:00:31Z</time></trkpt>
<trkpt lat="47.01947400" lon="6.81509900"><ele>1430.5799561064</ele><time>2011-10-11T15:00:42Z</time></trkpt>
<trkpt lat="47.01964300" lon="6.81513500"><ele>1429.619995212</ele><time>2011-10-11T15:00:53Z</time></trkpt>
<trkpt lat="47.01965800" lon="6.81514600"><ele>1429.619995212</ele><time>2011-10-11T15:00:54Z</time></trkpt>
<trkpt lat="47.01984200" lon="6.81528100"><ele>1431.0600584736</ele><time>2011-10-11T15:01:06Z</time></trkpt>
<trkpt lat="47.02003300" lon="6.81532100"><ele>1432.50000012</ele><time>2011-10-11T15:01:18Z</time></trkpt>
<trkpt lat="47.02010000" lon="6.81533700"><ele>1432.9799805672</ele><time>2011-10-11T15:01:22Z</time></trkpt>
<trkpt lat="47.02018000" lon="6.81539200"><ele>1434.4200438288</ele><time>2011-10-11T15:01:28Z</time></trkpt>
<trkpt lat="47.02024500" lon="6.81543200"><ele>1434.9100342128</ele><time>2011-10-11T15:01:32Z</time></trkpt>
<trkpt lat="47.02034300" lon="6.81548900"><ele>1434.9100342128</ele><time>2011-10-11T15:01:40Z</time></trkpt>
<trkpt lat="47.02056900" lon="6.81562000"><ele>1433.4599610144</ele><time>2011-10-11T15:01:54Z</time></trkpt>
<trkpt lat="47.02063700" lon="6.81565000"><ele>1432.9799805672</ele><time>2011-10-11T15:01:59Z</time></trkpt>
<trkpt lat="47.02070500" lon="6.81566600"><ele>1434.4200438288</ele><time>2011-10-11T15:02:04Z</time></trkpt>
<trkpt lat="47.02086500" lon="6.81574700"><ele>1433.9399414616</ele><time>2011-10-11T15:02:16Z</time></trkpt>
<trkpt lat="47.02097800" lon="6.81580400"><ele>1432.9799805672</ele><time>2011-10-11T15:02:23Z</time></trkpt>
<trkpt lat="47.02110800" lon="6.81586700"><ele>1432.9799805672</ele><time>2011-10-11T15:02:31Z</time></trkpt>
<trkpt lat="47.02117600" lon="6.81587400"><ele>1432.9799805672</ele><time>2011-10-11T15:02:35Z</time></trkpt>
<trkpt lat="47.02136100" lon="6.81592300"><ele>1432.0200196728</ele><time>2011-10-11T15:02:48Z</time></trkpt>
<trkpt lat="47.02152900" lon="6.81601600"><ele>1432.9799805672</ele><time>2011-10-11T15:02:57Z</time></trkpt>
<trkpt lat="47.02163000" lon="6.81605800"><ele>1433.9399414616</ele><time>2011-10-11T15:03:05Z</time></trkpt>
<trkpt lat="47.02172900" lon="6.81611500"><ele>1435.8699951072</ele><time>2011-10-11T15:03:13Z</time></trkpt>
<trkpt lat="47.02183800" lon="6.81615600"><ele>1435.8699951072</ele><time>2011-10-11T15:03:26Z</time></trkpt>
<trkpt lat="47.02182400" lon="6.81614100"><ele>1435.8699951072</ele><time>2011-10-11T15:03:28Z</time></trkpt>
<trkpt lat="47.02180600" lon="6.81609900"><ele>1436.3499755544</ele><time>2011-10-11T15:03:38Z</time></trkpt>
<trkpt lat="47.02180600" lon="6.81609900"><ele>1438.7500000152</ele><time>2011-10-11T15:04:01Z</time></trkpt>
<trkpt lat="47.02180700" lon="6.81610300"><ele>1435.8699951072</ele><time>2011-10-11T15:04:10Z</time></trkpt>
<trkpt lat="47.02180700" lon="6.81610300"><ele>1435.8699951072</ele><time>2011-10-11T15:04:28Z</time></trkpt>
<trkpt lat="47.02180700" lon="6.81610300"><ele>1435.8699951072</ele><time>2011-10-11T15:04:54Z</time></trkpt>
<trkpt lat="47.02180700" lon="6.81610300"><ele>1436.3499755544</ele><time>2011-10-11T15:05:20Z</time></trkpt>
<trkpt lat="47.02181300" lon="6.81610800"><ele>1438.270019568</ele><time>2011-10-11T15:05:49Z</time></trkpt>
<trkpt lat="47.02181300" lon="6.81610800"><ele>1436.8299560016</ele><time>2011-10-11T15:06:14Z</time></trkpt>
<trkpt lat="47.02181000" lon="6.81611200"><ele>1436.3499755544</ele><time>2011-10-11T15:06:47Z</time></trkpt>
<trkpt lat="47.02180900" lon="6.81610900"><ele>1436.3499755544</ele><time>2011-10-11T15:07:16Z</time></trkpt>
<trkpt lat="47.02180900" lon="6.81610900"><ele>1436.3499755544</ele><time>2011-10-11T15:07:49Z</time></trkpt>
<trkpt lat="47.02180600" lon="6.81610300"><ele>1436.3499755544</ele><time>2011-10-11T15:08:26Z</time></trkpt>
<trkpt lat="47.02180500" lon="6.81610300"><ele>1435.39001466</ele><time>2011-10-11T15:08:48Z</time></trkpt>
<trkpt lat="47.02180500" lon="6.81610400"><ele>1436.3499755544</ele><time>2011-10-11T15:09:26Z</time></trkpt>
<trkpt lat="47.02180700" lon="6.81610400"><ele>1435.8699951072</ele><time>2011-10-11T15:10:06Z</time></trkpt>
<trkpt lat="47.02180600" lon="6.81610400"><ele>1436.3499755544</ele><time>2011-10-11T15:10:46Z</time></trkpt>
<trkpt lat="47.02180500" lon="6.81610700"><ele>1436.3499755544</ele><time>2011-10-11T15:11:25Z</time></trkpt>
<trkpt lat="47.02180400" lon="6.81610500"><ele>1436.3499755544</ele><time>2011-10-11T15:12:01Z</time></trkpt>
<trkpt lat="47.02180400" lon="6.81610500"><ele>1436.3499755544</ele><time>2011-10-11T15:12:22Z</time></trkpt>
<trkpt lat="47.02180600" lon="6.81610400"><ele>1436.3499755544</ele><time>2011-10-11T15:12:58Z</time></trkpt>
<trkpt lat="47.02180800" lon="6.81610500"><ele>1436.3499755544</ele><time>2011-10-11T15:13:33Z</time></trkpt>
<trkpt lat="47.02180900" lon="6.81610500"><ele>1435.39001466</ele><time>2011-10-11T15:13:53Z</time></trkpt>
<trkpt lat="47.02180500" lon="6.81611300"><ele>1435.8699951072</ele><time>2011-10-11T15:13:55Z</time></trkpt>
<trkpt lat="47.02180500" lon="6.81609800"><ele>1436.8299560016</ele><time>2011-10-11T15:14:07Z</time></trkpt>
<trkpt lat="47.02181500" lon="6.81611500"><ele>1435.39001466</ele><time>2011-10-11T15:14:20Z</time></trkpt>
<trkpt lat="47.02183400" lon="6.81610300"><ele>1436.3499755544</ele><time>2011-10-11T15:14:38Z</time></trkpt>
<trkpt lat="47.02182500" lon="6.81611400"><ele>1435.39001466</ele><time>2011-10-11T15:14:52Z</time></trkpt>
<trkpt lat="47.02182500" lon="6.81611400"><ele>1436.3499755544</ele><time>2011-10-11T15:15:03Z</time></trkpt>
<trkpt lat="47.02182500" lon="6.81611400"><ele>1436.3499755544</ele><time>2011-10-11T15:15:07Z</time></trkpt>
<trkpt lat="47.02178700" lon="6.81614300"><ele>1435.8699951072</ele><time>2011-10-11T15:15:11Z</time></trkpt>
<trkpt lat="47.02175900" lon="6.81612600"><ele>1435.8699951072</ele><time>2011-10-11T15:15:14Z</time></trkpt>
<trkpt lat="47.02166100" lon="6.81608100"><ele>1434.9100342128</ele><time>2011-10-11T15:15:24Z</time></trkpt>
<trkpt lat="47.02163600" lon="6.81607800"><ele>1433.9399414616</ele><time>2011-10-11T15:15:26Z</time></trkpt>
<trkpt lat="47.02144100" lon="6.81603100"><ele>1431.0600584736</ele><time>2011-10-11T15:15:37Z</time></trkpt>
<trkpt lat="47.02130800" lon="6.81598100"><ele>1431.0600584736</ele><time>2011-10-11T15:15:43Z</time></trkpt>
<trkpt lat="47.02124100" lon="6.81597800"><ele>1432.0200196728</ele><time>2011-10-11T15:15:47Z</time></trkpt>
<trkpt lat="47.02108600" lon="6.81590000"><ele>1431.0600584736</ele><time>2011-10-11T15:15:56Z</time></trkpt>
<trkpt lat="47.02098700" lon="6.81583500"><ele>1431.5400389208</ele><time>2011-10-11T15:16:02Z</time></trkpt>
<trkpt lat="47.02095000" lon="6.81582200"><ele>1432.0200196728</ele><time>2011-10-11T15:16:04Z</time></trkpt>
<trkpt lat="47.02088100" lon="6.81578500"><ele>1432.50000012</ele><time>2011-10-11T15:16:08Z</time></trkpt>
<trkpt lat="47.02079000" lon="6.81571700"><ele>1433.9399414616</ele><time>2011-10-11T15:16:14Z</time></trkpt>
<trkpt lat="47.02067400" lon="6.81569900"><ele>1433.4599610144</ele><time>2011-10-11T15:16:21Z</time></trkpt>
<trkpt lat="47.02051200" lon="6.81563900"><ele>1432.50000012</ele><time>2011-10-11T15:16:30Z</time></trkpt>
<trkpt lat="47.02039200" lon="6.81557500"><ele>1432.9799805672</ele><time>2011-10-11T15:16:37Z</time></trkpt>
<trkpt lat="47.02021200" lon="6.81545000"><ele>1433.9399414616</ele><time>2011-10-11T15:16:49Z</time></trkpt>
<trkpt lat="47.01998700" lon="6.81533300"><ele>1432.0200196728</ele><time>2011-10-11T15:17:01Z</time></trkpt>
<trkpt lat="47.01978200" lon="6.81524900"><ele>1430.5799561064</ele><time>2011-10-11T15:17:13Z</time></trkpt>
<trkpt lat="47.01958600" lon="6.81515300"><ele>1429.1400147648</ele><time>2011-10-11T15:17:24Z</time></trkpt>
<trkpt lat="47.01953800" lon="6.81510900"><ele>1430.0999756592</ele><time>2011-10-11T15:17:27Z</time></trkpt>
<trkpt lat="47.01948000" lon="6.81500000"><ele>1429.619995212</ele><time>2011-10-11T15:17:33Z</time></trkpt>
<trkpt lat="47.01940700" lon="6.81503000"><ele>1429.619995212</ele><time>2011-10-11T15:17:39Z</time></trkpt>
<trkpt lat="47.01928000" lon="6.81496700"><ele>1427.6999511984</ele><time>2011-10-11T15:17:48Z</time></trkpt>
<trkpt lat="47.01924500" lon="6.81495300"><ele>1428.1800535656</ele><time>2011-10-11T15:17:50Z</time></trkpt>
<trkpt lat="47.01905200" lon="6.81491500"><ele>1426.7299803672</ele><time>2011-10-11T15:18:03Z</time></trkpt>
<trkpt lat="47.01887800" lon="6.81483800"><ele>1423.369995012</ele><time>2011-10-11T15:18:13Z</time></trkpt>
<trkpt lat="47.01880800" lon="6.81478300"><ele>1422.4100341176</ele><time>2011-10-11T15:18:17Z</time></trkpt>
<trkpt lat="47.01879300" lon="6.81476500"><ele>1422.8900145648</ele><time>2011-10-11T15:18:19Z</time></trkpt>
<trkpt lat="47.01877800" lon="6.81467500"><ele>1424.3299559064</ele><time>2011-10-11T15:18:25Z</time></trkpt>
<trkpt lat="47.01876200" lon="6.81464100"><ele>1425.2900390256</ele><time>2011-10-11T15:18:28Z</time></trkpt>
<trkpt lat="47.01872700" lon="6.81463900"><ele>1424.3299559064</ele><time>2011-10-11T15:18:31Z</time></trkpt>
<trkpt lat="47.01864800" lon="6.81460000"><ele>1425.2900390256</ele><time>2011-10-11T15:18:38Z</time></trkpt>
<trkpt lat="47.01861900" lon="6.81459500"><ele>1424.8100585784</ele><time>2011-10-11T15:18:46Z</time></trkpt>
<trkpt lat="47.01865000" lon="6.81453000"><ele>1423.369995012</ele><time>2011-10-11T15:18:52Z</time></trkpt>
<trkpt lat="47.01870500" lon="6.81455300"><ele>1420.9699705512</ele><time>2011-10-11T15:19:02Z</time></trkpt>
<trkpt lat="47.01872600" lon="6.81457200"><ele>1421.9300536704</ele><time>2011-10-11T15:19:05Z</time></trkpt>
<trkpt lat="47.01877300" lon="6.81461700"><ele>1423.369995012</ele><time>2011-10-11T15:19:10Z</time></trkpt>
<trkpt lat="47.01888300" lon="6.81471900"><ele>1424.8100585784</ele><time>2011-10-11T15:19:21Z</time></trkpt>
<trkpt lat="47.01897300" lon="6.81478500"><ele>1425.7700194728</ele><time>2011-10-11T15:19:29Z</time></trkpt>
<trkpt lat="47.01904200" lon="6.81479200"><ele>1425.7700194728</ele><time>2011-10-11T15:19:35Z</time></trkpt>
<trkpt lat="47.01914100" lon="6.81481400"><ele>1426.24999992</ele><time>2011-10-11T15:19:43Z</time></trkpt>
<trkpt lat="47.01924800" lon="6.81491900"><ele>1427.6999511984</ele><time>2011-10-11T15:19:54Z</time></trkpt>
<trkpt lat="47.01926500" lon="6.81493500"><ele>1427.6999511984</ele><time>2011-10-11T15:19:56Z</time></trkpt>
<trkpt lat="47.01935000" lon="6.81500300"><ele>1429.1400147648</ele><time>2011-10-11T15:20:04Z</time></trkpt>
<trkpt lat="47.01937100" lon="6.81502600"><ele>1429.1400147648</ele><time>2011-10-11T15:20:07Z</time></trkpt>
<trkpt lat="47.01945100" lon="6.81503000"><ele>1430.5799561064</ele><time>2011-10-11T15:20:13Z</time></trkpt>
<trkpt lat="47.01949000" lon="6.81503700"><ele>1430.0999756592</ele><time>2011-10-11T15:20:19Z</time></trkpt>
<trkpt lat="47.01952500" lon="6.81501300"><ele>1429.619995212</ele><time>2011-10-11T15:20:23Z</time></trkpt>
<trkpt lat="47.01954200" lon="6.81502100"><ele>1429.1400147648</ele><time>2011-10-11T15:20:28Z</time></trkpt>
<trkpt lat="47.01956000" lon="6.81509300"><ele>1428.6600343176</ele><time>2011-10-11T15:20:33Z</time></trkpt>
<trkpt lat="47.01958300" lon="6.81514000"><ele>1428.6600343176</ele><time>2011-10-11T15:20:37Z</time></trkpt>
<trkpt lat="47.01960500" lon="6.81514700"><ele>1428.6600343176</ele><time>2011-10-11T15:20:39Z</time></trkpt>
<trkpt lat="47.01971500" lon="6.81517000"><ele>1429.619995212</ele><time>2011-10-11T15:20:50Z</time></trkpt>
<trkpt lat="47.01978500" lon="6.81517100"><ele>1430.0999756592</ele><time>2011-10-11T15:21:00Z</time></trkpt>
<trkpt lat="47.01984200" lon="6.81518800"><ele>1430.5799561064</ele><time>2011-10-11T15:21:11Z</time></trkpt>
<trkpt lat="47.01984000" lon="6.81519800"><ele>1430.5799561064</ele><time>2011-10-11T15:21:12Z</time></trkpt>
<trkpt lat="47.01985000" lon="6.81523100"><ele>1432.0200196728</ele><time>2011-10-11T15:21:20Z</time></trkpt>
<trkpt lat="47.01985100" lon="6.81523000"><ele>1430.0999756592</ele><time>2011-10-11T15:21:38Z</time></trkpt>
<trkpt lat="47.01985000" lon="6.81523000"><ele>1430.0999756592</ele><time>2011-10-11T15:22:09Z</time></trkpt>
<trkpt lat="47.01985000" lon="6.81523000"><ele>1430.0999756592</ele><time>2011-10-11T15:22:38Z</time></trkpt>
<trkpt lat="47.01983100" lon="6.81523400"><ele>1431.0600584736</ele><time>2011-10-11T15:22:51Z</time></trkpt>
<trkpt lat="47.01972300" lon="6.81523100"><ele>1428.1800535656</ele><time>2011-10-11T15:22:57Z</time></trkpt>
<trkpt lat="47.01953900" lon="6.81513900"><ele>1429.1400147648</ele><time>2011-10-11T15:23:09Z</time></trkpt>
<trkpt lat="47.01952800" lon="6.81513100"><ele>1429.1400147648</ele><time>2011-10-11T15:23:10Z</time></trkpt>
<trkpt lat="47.01938000" lon="6.81505600"><ele>1428.6600343176</ele><time>2011-10-11T15:23:19Z</time></trkpt>
<trkpt lat="47.01926500" lon="6.81497300"><ele>1430.0999756592</ele><time>2011-10-11T15:23:28Z</time></trkpt>
<trkpt lat="47.01920700" lon="6.81495300"><ele>1426.7299803672</ele><time>2011-10-11T15:23:33Z</time></trkpt>
<trkpt lat="47.01919300" lon="6.81494800"><ele>1427.2099608144</ele><time>2011-10-11T15:23:34Z</time></trkpt>
<trkpt lat="47.01912300" lon="6.81492300"><ele>1427.2099608144</ele><time>2011-10-11T15:23:38Z</time></trkpt>
<trkpt lat="47.01897700" lon="6.81484300"><ele>1424.8100585784</ele><time>2011-10-11T15:23:48Z</time></trkpt>
<trkpt lat="47.01890300" lon="6.81480200"><ele>1423.369995012</ele><time>2011-10-11T15:23:52Z</time></trkpt>
<trkpt lat="47.01875700" lon="6.81469700"><ele>1422.4100341176</ele><time>2011-10-11T15:23:59Z</time></trkpt>
<trkpt lat="47.01860900" lon="6.81465200"><ele>1420.9699705512</ele><time>2011-10-11T15:24:06Z</time></trkpt>
<trkpt lat="47.01856100" lon="6.81465200"><ele>1422.4100341176</ele><time>2011-10-11T15:24:10Z</time></trkpt>
<trkpt lat="47.01855300" lon="6.81464500"><ele>1422.4100341176</ele><time>2011-10-11T15:24:11Z</time></trkpt>
<trkpt lat="47.01845000" lon="6.81454800"><ele>1419.5200195776</ele><time>2011-10-11T15:24:18Z</time></trkpt>
<trkpt lat="47.01843100" lon="6.81451800"><ele>1418.5600586832</ele><time>2011-10-11T15:24:19Z</time></trkpt>
<trkpt lat="47.01835900" lon="6.81443900"><ele>1419.0400391304</ele><time>2011-10-11T15:24:23Z</time></trkpt>
<trkpt lat="47.01831600" lon="6.81434100"><ele>1420.0000000248</ele><time>2011-10-11T15:24:28Z</time></trkpt>
<trkpt lat="47.01825100" lon="6.81430800"><ele>1421.9300536704</ele><time>2011-10-11T15:24:34Z</time></trkpt>
<trkpt lat="47.01818300" lon="6.81425900"><ele>1422.4100341176</ele><time>2011-10-11T15:24:39Z</time></trkpt>
<trkpt lat="47.01809900" lon="6.81416500"><ele>1420.0000000248</ele><time>2011-10-11T15:24:46Z</time></trkpt>
<trkpt lat="47.01805300" lon="6.81412700"><ele>1416.6400146696</ele><time>2011-10-11T15:24:51Z</time></trkpt>
<trkpt lat="47.01804800" lon="6.81412400"><ele>1420.9699705512</ele><time>2011-10-11T15:24:52Z</time></trkpt>
<trkpt lat="47.01804500" lon="6.81412000"><ele>1420.0000000248</ele><time>2011-10-11T15:24:54Z</time></trkpt>
<trkpt lat="47.01802900" lon="6.81408400"><ele>1418.5600586832</ele><time>2011-10-11T15:25:06Z</time></trkpt>
<trkpt lat="47.01802900" lon="6.81408400"><ele>1417.599975564</ele><time>2011-10-11T15:25:33Z</time></trkpt>
<trkpt lat="47.01803000" lon="6.81408300"><ele>1418.0799560112</ele><time>2011-10-11T15:26:00Z</time></trkpt>
<trkpt lat="47.01803000" lon="6.81408400"><ele>1417.599975564</ele><time>2011-10-11T15:26:32Z</time></trkpt>
<trkpt lat="47.01803000" lon="6.81408400"><ele>1418.5600586832</ele><time>2011-10-11T15:26:45Z</time></trkpt>
<trkpt lat="47.01803900" lon="6.81407900"><ele>1418.5600586832</ele><time>2011-10-11T15:26:59Z</time></trkpt>
<trkpt lat="47.01808300" lon="6.81424200"><ele>1418.5600586832</ele><time>2011-10-11T15:27:10Z</time></trkpt>
<trkpt lat="47.01804100" lon="6.81434900"><ele>1416.1600342224</ele><time>2011-10-11T15:27:19Z</time></trkpt>
<trkpt lat="47.01796500" lon="6.81436100"><ele>1413.7600097616</ele><time>2011-10-11T15:27:25Z</time></trkpt>
<trkpt lat="47.01796400" lon="6.81450500"><ele>1411.3499756688</ele><time>2011-10-11T15:27:35Z</time></trkpt>
<trkpt lat="47.01798800" lon="6.81468300"><ele>1409.9100343272</ele><time>2011-10-11T15:27:44Z</time></trkpt>
<trkpt lat="47.01798800" lon="6.81470500"><ele>1409.9100343272</ele><time>2011-10-11T15:27:45Z</time></trkpt>
<trkpt lat="47.01800600" lon="6.81482600"><ele>1407.9899903136</ele><time>2011-10-11T15:27:52Z</time></trkpt>
<trkpt lat="47.01809300" lon="6.81499600"><ele>1407.0300294192</ele><time>2011-10-11T15:28:03Z</time></trkpt>
<trkpt lat="47.01810000" lon="6.81502100"><ele>1407.0300294192</ele><time>2011-10-11T15:28:04Z</time></trkpt>
<trkpt lat="47.01812900" lon="6.81515600"><ele>1405.579955916</ele><time>2011-10-11T15:28:12Z</time></trkpt>
<trkpt lat="47.01815100" lon="6.81525500"><ele>1404.1400145744</ele><time>2011-10-11T15:28:16Z</time></trkpt>
<trkpt lat="47.01820100" lon="6.81548300"><ele>1401.7399901136</ele><time>2011-10-11T15:28:23Z</time></trkpt>
<trkpt lat="47.01824400" lon="6.81575000"><ele>1398.3699951264</ele><time>2011-10-11T15:28:32Z</time></trkpt>
<trkpt lat="47.01824600" lon="6.81575100"><ele>1398.3699951264</ele><time>2011-10-11T15:28:39Z</time></trkpt>
<trkpt lat="47.01828500" lon="6.81590000"><ele>1397.8900146792</ele><time>2011-10-11T15:28:48Z</time></trkpt>
<trkpt lat="47.01817200" lon="6.81604400"><ele>1394.530029324</ele><time>2011-10-11T15:28:57Z</time></trkpt>
<trkpt lat="47.01807200" lon="6.81618400"><ele>1391.1700439688</ele><time>2011-10-11T15:29:07Z</time></trkpt>
<trkpt lat="47.01801800" lon="6.81629600"><ele>1387.8000486768</ele><time>2011-10-11T15:29:12Z</time></trkpt>
<trkpt lat="47.01788900" lon="6.81645900"><ele>1384.4399414016</ele><time>2011-10-11T15:29:20Z</time></trkpt>
<trkpt lat="47.01782700" lon="6.81658300"><ele>1381.5500487816</ele><time>2011-10-11T15:29:24Z</time></trkpt>
<trkpt lat="47.01787500" lon="6.81669500"><ele>1381.0699464144</ele><time>2011-10-11T15:29:29Z</time></trkpt>
<trkpt lat="47.01817500" lon="6.81705400"><ele>1380.5899659672</ele><time>2011-10-11T15:29:41Z</time></trkpt>
<trkpt lat="47.01814300" lon="6.81726700"><ele>1379.630004768</ele><time>2011-10-11T15:29:47Z</time></trkpt>
<trkpt lat="47.01800400" lon="6.81738600"><ele>1375.7800293336</ele><time>2011-10-11T15:29:53Z</time></trkpt>
<trkpt lat="47.01789000" lon="6.81745900"><ele>1372.4200439784</ele><time>2011-10-11T15:29:57Z</time></trkpt>
<trkpt lat="47.01774300" lon="6.81753600"><ele>1368.5699463192</ele><time>2011-10-11T15:30:01Z</time></trkpt>
<trkpt lat="47.01762900" lon="6.81770500"><ele>1365.209960964</ele><time>2011-10-11T15:30:06Z</time></trkpt>
<trkpt lat="47.01759200" lon="6.81778600"><ele>1363.2900391752</ele><time>2011-10-11T15:30:08Z</time></trkpt>
<trkpt lat="47.01748500" lon="6.81801900"><ele>1358.9599610688</ele><time>2011-10-11T15:30:13Z</time></trkpt>
<trkpt lat="47.01748200" lon="6.81805600"><ele>1358.9599610688</ele><time>2011-10-11T15:30:14Z</time></trkpt>
<trkpt lat="47.01755600" lon="6.81824900"><ele>1354.6300048824</ele><time>2011-10-11T15:30:20Z</time></trkpt>
<trkpt lat="47.01759700" lon="6.81829700"><ele>1354.1500244352</ele><time>2011-10-11T15:30:22Z</time></trkpt>
<trkpt lat="47.01768200" lon="6.81840800"><ele>1350.79003908</ele><time>2011-10-11T15:30:26Z</time></trkpt>
<trkpt lat="47.01777400" lon="6.81852700"><ele>1348.8699950664</ele><time>2011-10-11T15:30:29Z</time></trkpt>
<trkpt lat="47.01784500" lon="6.81864900"><ele>1345.020019632</ele><time>2011-10-11T15:30:32Z</time></trkpt>
<trkpt lat="47.01785900" lon="6.81884700"><ele>1342.140014724</ele><time>2011-10-11T15:30:37Z</time></trkpt>
<trkpt lat="47.01782900" lon="6.81896900"><ele>1340.2199707104</ele><time>2011-10-11T15:30:40Z</time></trkpt>
<trkpt lat="47.01784500" lon="6.81929300"><ele>1336.8499757232</ele><time>2011-10-11T15:30:45Z</time></trkpt>
<trkpt lat="47.01786200" lon="6.81934600"><ele>1336.3699949712</ele><time>2011-10-11T15:30:46Z</time></trkpt>
<trkpt lat="47.01798500" lon="6.81957400"><ele>1333.9699708152</ele><time>2011-10-11T15:30:51Z</time></trkpt>
<trkpt lat="47.01811000" lon="6.81982400"><ele>1332.5200195368</ele><time>2011-10-11T15:30:54Z</time></trkpt>
<trkpt lat="47.01822700" lon="6.82021100"><ele>1327.239990168</ele><time>2011-10-11T15:30:58Z</time></trkpt>
<trkpt lat="47.01837800" lon="6.82048800"><ele>1324.349975628</ele><time>2011-10-11T15:31:02Z</time></trkpt>
<trkpt lat="47.01847000" lon="6.82058700"><ele>1322.9100342864</ele><time>2011-10-11T15:31:04Z</time></trkpt>
<trkpt lat="47.01855600" lon="6.82097500"><ele>1318.589965812</ele><time>2011-10-11T15:31:09Z</time></trkpt>
<trkpt lat="47.01840800" lon="6.82113700"><ele>1316.1800536392</ele><time>2011-10-11T15:31:12Z</time></trkpt>
<trkpt lat="47.01817900" lon="6.82141500"><ele>1310.9000242704</ele><time>2011-10-11T15:31:17Z</time></trkpt>
<trkpt lat="47.01806200" lon="6.82162700"><ele>1308.9699706248</ele><time>2011-10-11T15:31:20Z</time></trkpt>
<trkpt lat="47.01790900" lon="6.82179700"><ele>1305.1300048224</ele><time>2011-10-11T15:31:23Z</time></trkpt>
<trkpt lat="47.01785800" lon="6.82186200"><ele>1303.1999511768</ele><time>2011-10-11T15:31:24Z</time></trkpt>
<trkpt lat="47.01765900" lon="6.82219900"><ele>1298.8800049272</ele><time>2011-10-11T15:31:28Z</time></trkpt>
<trkpt lat="47.01755000" lon="6.82233400"><ele>1296.9599609136</ele><time>2011-10-11T15:31:30Z</time></trkpt>
<trkpt lat="47.01722600" lon="6.82279000"><ele>1292.15002428</ele><time>2011-10-11T15:31:35Z</time></trkpt>
<trkpt lat="47.01705200" lon="6.82304300"><ele>1288.7800292928</ele><time>2011-10-11T15:31:38Z</time></trkpt>
<trkpt lat="47.01699600" lon="6.82312100"><ele>1287.3399657264</ele><time>2011-10-11T15:31:39Z</time></trkpt>
<trkpt lat="47.01679600" lon="6.82331100"><ele>1284.9399412656</ele><time>2011-10-11T15:31:42Z</time></trkpt>
<trkpt lat="47.01665300" lon="6.82340900"><ele>1280.609985384</ele><time>2011-10-11T15:31:44Z</time></trkpt>
<trkpt lat="47.01658100" lon="6.82345400"><ele>1280.609985384</ele><time>2011-10-11T15:31:45Z</time></trkpt>
<trkpt lat="47.01638100" lon="6.82359200"><ele>1277.729980476</ele><time>2011-10-11T15:31:48Z</time></trkpt>
<trkpt lat="47.01631900" lon="6.82363800"><ele>1276.7700195816</ele><time>2011-10-11T15:31:49Z</time></trkpt>
<trkpt lat="47.01603500" lon="6.82384000"><ele>1272.4399414752</ele><time>2011-10-11T15:31:54Z</time></trkpt>
<trkpt lat="47.01600000" lon="6.82391400"><ele>1271.4799805808</ele><time>2011-10-11T15:31:55Z</time></trkpt>
<trkpt lat="47.01590800" lon="6.82416500"><ele>1267.6400147784</ele><time>2011-10-11T15:31:58Z</time></trkpt>
<trkpt lat="47.01577600" lon="6.82442000"><ele>1262.3499754728</ele><time>2011-10-11T15:32:01Z</time></trkpt>
<trkpt lat="47.01572700" lon="6.82448800"><ele>1260.430053684</ele><time>2011-10-11T15:32:02Z</time></trkpt>
<trkpt lat="47.01561000" lon="6.82463900"><ele>1256.5799560248</ele><time>2011-10-11T15:32:05Z</time></trkpt>
<trkpt lat="47.01559100" lon="6.82482600"><ele>1255.1400146832</ele><time>2011-10-11T15:32:08Z</time></trkpt>
<trkpt lat="47.01563800" lon="6.82501900"><ele>1253.6999511168</ele><time>2011-10-11T15:32:10Z</time></trkpt>
<trkpt lat="47.01571400" lon="6.82523300"><ele>1252.7399902224</ele><time>2011-10-11T15:32:12Z</time></trkpt>
<trkpt lat="47.01602400" lon="6.82573200"><ele>1249.3699952352</ele><time>2011-10-11T15:32:17Z</time></trkpt>
<trkpt lat="47.01620800" lon="6.82598300"><ele>1246.01000988</ele><time>2011-10-11T15:32:20Z</time></trkpt>
<trkpt lat="47.01647100" lon="6.82652800"><ele>1242.640014588</ele><time>2011-10-11T15:32:25Z</time></trkpt>
<trkpt lat="47.01659300" lon="6.82692200"><ele>1238.8000487856</ele><time>2011-10-11T15:32:28Z</time></trkpt>
<trkpt lat="47.01675900" lon="6.82722800"><ele>1236.3900146928</ele><time>2011-10-11T15:32:31Z</time></trkpt>
<trkpt lat="47.01714700" lon="6.82775800"><ele>1233.5100097848</ele><time>2011-10-11T15:32:36Z</time></trkpt>
<trkpt lat="47.01744700" lon="6.82825000"><ele>1229.1800535984</ele><time>2011-10-11T15:32:40Z</time></trkpt>
<trkpt lat="47.01768000" lon="6.82858400"><ele>1227.2600098896</ele><time>2011-10-11T15:32:43Z</time></trkpt>
<trkpt lat="47.01784900" lon="6.82899400"><ele>1224.3800049816</ele><time>2011-10-11T15:32:46Z</time></trkpt>
<trkpt lat="47.01817300" lon="6.82954900"><ele>1221.969970584</ele><time>2011-10-11T15:32:51Z</time></trkpt>
<trkpt lat="47.01834300" lon="6.82969000"><ele>1219.089965676</ele><time>2011-10-11T15:32:53Z</time></trkpt>
<trkpt lat="47.01858300" lon="6.83035400"><ele>1215.7199706888</ele><time>2011-10-11T15:32:59Z</time></trkpt>
<trkpt lat="47.01870200" lon="6.83074200"><ele>1212.8399657808</ele><time>2011-10-11T15:33:02Z</time></trkpt>
<trkpt lat="47.01883400" lon="6.83100300"><ele>1210.43994132</ele><time>2011-10-11T15:33:04Z</time></trkpt>
<trkpt lat="47.01912100" lon="6.83151300"><ele>1206.1099854384</ele><time>2011-10-11T15:33:08Z</time></trkpt>
<trkpt lat="47.01924800" lon="6.83181000"><ele>1201.7900391888</ele><time>2011-10-11T15:33:10Z</time></trkpt>
<trkpt lat="47.01937200" lon="6.83211000"><ele>1197.9399415296</ele><time>2011-10-11T15:33:12Z</time></trkpt>
<trkpt lat="47.01957300" lon="6.83252500"><ele>1193.130004896</ele><time>2011-10-11T15:33:15Z</time></trkpt>
<trkpt lat="47.01970700" lon="6.83279700"><ele>1189.2900390936</ele><time>2011-10-11T15:33:17Z</time></trkpt>
<trkpt lat="47.01976500" lon="6.83294100"><ele>1187.36999508</ele><time>2011-10-11T15:33:18Z</time></trkpt>
<trkpt lat="47.01987400" lon="6.83340900"><ele>1183.0400391984</ele><time>2011-10-11T15:33:21Z</time></trkpt>
<trkpt lat="47.01994200" lon="6.83371400"><ele>1179.6700439064</ele><time>2011-10-11T15:33:23Z</time></trkpt>
<trkpt lat="47.02003500" lon="6.83400300"><ele>1176.3100585512</ele><time>2011-10-11T15:33:25Z</time></trkpt>
<trkpt lat="47.02008200" lon="6.83413900"><ele>1176.3100585512</ele><time>2011-10-11T15:33:26Z</time></trkpt>
<trkpt lat="47.02034600" lon="6.83465500"><ele>1170.5400391032</ele><time>2011-10-11T15:33:30Z</time></trkpt>
<trkpt lat="47.02048500" lon="6.83493700"><ele>1166.699951076</ele><time>2011-10-11T15:33:32Z</time></trkpt>
<trkpt lat="47.02065100" lon="6.83537500"><ele>1161.4100343</ele><time>2011-10-11T15:33:35Z</time></trkpt>
<trkpt lat="47.02071200" lon="6.83549800"><ele>1159.9699707336</ele><time>2011-10-11T15:33:36Z</time></trkpt>
<trkpt lat="47.02102600" lon="6.83599900"><ele>1154.6800536528</ele><time>2011-10-11T15:33:40Z</time></trkpt>
<trkpt lat="47.02118500" lon="6.83622500"><ele>1150.8399659304</ele><time>2011-10-11T15:33:42Z</time></trkpt>
<trkpt lat="47.02134100" lon="6.83643100"><ele>1146.9899901912</ele><time>2011-10-11T15:33:44Z</time></trkpt>
<trkpt lat="47.02149700" lon="6.83662500"><ele>1143.630004836</ele><time>2011-10-11T15:33:46Z</time></trkpt>
<trkpt lat="47.02164300" lon="6.83683000"><ele>1140.739990296</ele><time>2011-10-11T15:33:48Z</time></trkpt>
<trkpt lat="47.02181300" lon="6.83723500"><ele>1137.3800049408</ele><time>2011-10-11T15:33:51Z</time></trkpt>
<trkpt lat="47.02196700" lon="6.83769000"><ele>1134.0100096488</ele><time>2011-10-11T15:33:54Z</time></trkpt>
<trkpt lat="47.02209800" lon="6.83802200"><ele>1129.6899414792</ele><time>2011-10-11T15:33:56Z</time></trkpt>
<trkpt lat="47.02221200" lon="6.83830800"><ele>1125.83996574</ele><time>2011-10-11T15:33:58Z</time></trkpt>
<trkpt lat="47.02231900" lon="6.83856100"><ele>1122.4799803848</ele><time>2011-10-11T15:34:00Z</time></trkpt>
<trkpt lat="47.02242300" lon="6.83880100"><ele>1119.1099853976</ele><time>2011-10-11T15:34:02Z</time></trkpt>
<trkpt lat="47.02254600" lon="6.83912100"><ele>1114.3100587008</ele><time>2011-10-11T15:34:05Z</time></trkpt>
<trkpt lat="47.02265200" lon="6.83969800"><ele>1109.5000001472</ele><time>2011-10-11T15:34:09Z</time></trkpt>
<trkpt lat="47.02273100" lon="6.84017700"><ele>1105.650024408</ele><time>2011-10-11T15:34:12Z</time></trkpt>
<trkpt lat="47.02279300" lon="6.84049600"><ele>1103.7299803944</ele><time>2011-10-11T15:34:14Z</time></trkpt>
<trkpt lat="47.02288500" lon="6.84100300"><ele>1099.4000245128</ele><time>2011-10-11T15:34:17Z</time></trkpt>
<trkpt lat="47.02292900" lon="6.84150600"><ele>1094.119995144</ele><time>2011-10-11T15:34:20Z</time></trkpt>
<trkpt lat="47.02298700" lon="6.84201300"><ele>1090.2700194048</ele><time>2011-10-11T15:34:23Z</time></trkpt>
<trkpt lat="47.02303000" lon="6.84232900"><ele>1086.9100340496</ele><time>2011-10-11T15:34:25Z</time></trkpt>
<trkpt lat="47.02309600" lon="6.84288400"><ele>1082.099975496</ele><time>2011-10-11T15:34:29Z</time></trkpt>
<trkpt lat="47.02319500" lon="6.84316100"><ele>1080.6600341544</ele><time>2011-10-11T15:34:31Z</time></trkpt>
<trkpt lat="47.02332400" lon="6.84344100"><ele>1078.7399901408</ele><time>2011-10-11T15:34:33Z</time></trkpt>
<trkpt lat="47.02349600" lon="6.84405400"><ele>1073.930053812</ele><time>2011-10-11T15:34:37Z</time></trkpt>
<trkpt lat="47.02351200" lon="6.84421800"><ele>1072.4899902456</ele><time>2011-10-11T15:34:38Z</time></trkpt>
<trkpt lat="47.02351200" lon="6.84450800"><ele>1071.050048904</ele><time>2011-10-11T15:34:40Z</time></trkpt>
<trkpt lat="47.02352200" lon="6.84477200"><ele>1068.6400145064</ele><time>2011-10-11T15:34:42Z</time></trkpt>
<trkpt lat="47.02371900" lon="6.84524700"><ele>1064.3199463368</ele><time>2011-10-11T15:34:47Z</time></trkpt>
<trkpt lat="47.02390200" lon="6.84556100"><ele>1060.9499510448</ele><time>2011-10-11T15:34:50Z</time></trkpt>
<trkpt lat="47.02406200" lon="6.84612300"><ele>1055.6700439008</ele><time>2011-10-11T15:34:54Z</time></trkpt>
<trkpt lat="47.02412100" lon="6.84639400"><ele>1052.3000489136</ele><time>2011-10-11T15:34:56Z</time></trkpt>
<trkpt lat="47.02418800" lon="6.84679900"><ele>1048.4499512544</ele><time>2011-10-11T15:34:59Z</time></trkpt>
<trkpt lat="47.02437600" lon="6.84738800"><ele>1043.6500245576</ele><time>2011-10-11T15:35:03Z</time></trkpt>
<trkpt lat="47.02447800" lon="6.84770700"><ele>1040.2800292656</ele><time>2011-10-11T15:35:05Z</time></trkpt>
<trkpt lat="47.02463300" lon="6.84816600"><ele>1036.4399415432</ele><time>2011-10-11T15:35:08Z</time></trkpt>
<trkpt lat="47.02467500" lon="6.84831300"><ele>1034.5200194496</ele><time>2011-10-11T15:35:09Z</time></trkpt>
<trkpt lat="47.02476500" lon="6.84873100"><ele>1030.1899413432</ele><time>2011-10-11T15:35:12Z</time></trkpt>
<trkpt lat="47.02478200" lon="6.84885700"><ele>1029.2299804488</ele><time>2011-10-11T15:35:13Z</time></trkpt>
<trkpt lat="47.02497300" lon="6.84927200"><ele>1024.9000242624</ele><time>2011-10-11T15:35:17Z</time></trkpt>
<trkpt lat="47.02518700" lon="6.84973200"><ele>1020.0999756456</ele><time>2011-10-11T15:35:21Z</time></trkpt>
<trkpt lat="47.02525700" lon="6.84997800"><ele>1017.2100220656</ele><time>2011-10-11T15:35:23Z</time></trkpt>
<trkpt lat="47.02545800" lon="6.85038000"><ele>1012.409973144</ele><time>2011-10-11T15:35:28Z</time></trkpt>
<trkpt lat="47.02539300" lon="6.85050400"><ele>1010.9600218656</ele><time>2011-10-11T15:35:31Z</time></trkpt>
<trkpt lat="47.02526400" lon="6.85039500"><ele>1009.0399781568</ele><time>2011-10-11T15:35:34Z</time></trkpt>
<trkpt lat="47.02512500" lon="6.85018500"><ele>1008.0800169576</ele><time>2011-10-11T15:35:37Z</time></trkpt>
<trkpt lat="47.02481500" lon="6.84986600"><ele>1004.7199706424</ele><time>2011-10-11T15:35:42Z</time></trkpt>
<trkpt lat="47.02445300" lon="6.84960400"><ele>999.9099730488</ele><time>2011-10-11T15:35:46Z</time></trkpt>
<trkpt lat="47.02436300" lon="6.84954800"><ele>998.4699707472</ele><time>2011-10-11T15:35:47Z</time></trkpt>
<trkpt lat="47.02397900" lon="6.84945600"><ele>994.1400145608</ele><time>2011-10-11T15:35:51Z</time></trkpt>
<trkpt lat="47.02375700" lon="6.84936400"><ele>992.7000122592</ele><time>2011-10-11T15:35:54Z</time></trkpt>
<trkpt lat="47.02361600" lon="6.84918800"><ele>991.2600096528</ele><time>2011-10-11T15:35:56Z</time></trkpt>
<trkpt lat="47.02343400" lon="6.84885400"><ele>989.8099974144</ele><time>2011-10-11T15:35:59Z</time></trkpt>
<trkpt lat="47.02304900" lon="6.84856900"><ele>985.4899902048</ele><time>2011-10-11T15:36:04Z</time></trkpt>
<trkpt lat="47.02278500" lon="6.84863300"><ele>983.570007456</ele><time>2011-10-11T15:36:07Z</time></trkpt>
<trkpt lat="47.02235500" lon="6.84878500"><ele>979.2399903096</ele><time>2011-10-11T15:36:12Z</time></trkpt>
<trkpt lat="47.02192700" lon="6.84855700"><ele>974.429992716</ele><time>2011-10-11T15:36:18Z</time></trkpt>
<trkpt lat="47.02185300" lon="6.84847800"><ele>974.429992716</ele><time>2011-10-11T15:36:19Z</time></trkpt>
<trkpt lat="47.02177800" lon="6.84840400"><ele>973.9500122688</ele><time>2011-10-11T15:36:20Z</time></trkpt>
<trkpt lat="47.02133200" lon="6.84792000"><ele>968.6699829</ele><time>2011-10-11T15:36:25Z</time></trkpt>
<trkpt lat="47.02105100" lon="6.84763400"><ele>964.3400267136</ele><time>2011-10-11T15:36:28Z</time></trkpt>
<trkpt lat="47.02078600" lon="6.84746100"><ele>960.4899903192</ele><time>2011-10-11T15:36:31Z</time></trkpt>
<trkpt lat="47.02061100" lon="6.84740200"><ele>957.6099854112</ele><time>2011-10-11T15:36:33Z</time></trkpt>
<trkpt lat="47.02026100" lon="6.84749000"><ele>952.3200073704</ele><time>2011-10-11T15:36:37Z</time></trkpt>
<trkpt lat="47.01997700" lon="6.84768200"><ele>946.5599975544</ele><time>2011-10-11T15:36:40Z</time></trkpt>
<trkpt lat="47.01977500" lon="6.84780200"><ele>943.6699830144</ele><time>2011-10-11T15:36:42Z</time></trkpt>
<trkpt lat="47.01967300" lon="6.84785000"><ele>941.7499999608</ele><time>2011-10-11T15:36:43Z</time></trkpt>
<trkpt lat="47.01953300" lon="6.84796800"><ele>939.830017212</ele><time>2011-10-11T15:36:45Z</time></trkpt>
<trkpt lat="47.01938100" lon="6.84801100"><ele>935.9799805128</ele><time>2011-10-11T15:36:47Z</time></trkpt>
<trkpt lat="47.01916900" lon="6.84795800"><ele>932.1400147104</ele><time>2011-10-11T15:36:49Z</time></trkpt>
<trkpt lat="47.01897200" lon="6.84791400"><ele>928.2899780112</ele><time>2011-10-11T15:36:51Z</time></trkpt>
<trkpt lat="47.01871100" lon="6.84792900"><ele>923.9600218248</ele><time>2011-10-11T15:36:54Z</time></trkpt>
<trkpt lat="47.01843500" lon="6.84802400"><ele>919.6400146152</ele><time>2011-10-11T15:36:57Z</time></trkpt>
<trkpt lat="47.01823100" lon="6.84831400"><ele>915.3099974688</ele><time>2011-10-11T15:37:00Z</time></trkpt>
<trkpt lat="47.01816900" lon="6.84860200"><ele>911.9500121136</ele><time>2011-10-11T15:37:02Z</time></trkpt>
<trkpt lat="47.01813900" lon="6.84931800"><ele>903.7800291648</ele><time>2011-10-11T15:37:06Z</time></trkpt>
<trkpt lat="47.01814900" lon="6.84963600"><ele>899.9299927704</ele><time>2011-10-11T15:37:08Z</time></trkpt>
<trkpt lat="47.01815300" lon="6.84991000"><ele>896.5700074152</ele><time>2011-10-11T15:37:10Z</time></trkpt>
<trkpt lat="47.01810900" lon="6.85027500"><ele>893.6799925704</ele><time>2011-10-11T15:37:13Z</time></trkpt>
<trkpt lat="47.01794800" lon="6.85059000"><ele>890.3200072152</ele><time>2011-10-11T15:37:16Z</time></trkpt>
<trkpt lat="47.01786500" lon="6.85067600"><ele>889.840026768</ele><time>2011-10-11T15:37:17Z</time></trkpt>
<trkpt lat="47.01750100" lon="6.85115100"><ele>885.0300291744</ele><time>2011-10-11T15:37:22Z</time></trkpt>
<trkpt lat="47.01734700" lon="6.85153600"><ele>883.1099854656</ele><time>2011-10-11T15:37:25Z</time></trkpt>
<trkpt lat="47.01721700" lon="6.85186000"><ele>878.7800292792</ele><time>2011-10-11T15:37:28Z</time></trkpt>
<trkpt lat="47.01710500" lon="6.85220500"><ele>875.419982964</ele><time>2011-10-11T15:37:33Z</time></trkpt>
<trkpt lat="47.01709400" lon="6.85225600"><ele>874.9400025168</ele><time>2011-10-11T15:37:34Z</time></trkpt>
<trkpt lat="47.01703500" lon="6.85273900"><ele>872.530029384</ele><time>2011-10-11T15:37:40Z</time></trkpt>
<trkpt lat="47.01697500" lon="6.85306600"><ele>871.0900267776</ele><time>2011-10-11T15:37:43Z</time></trkpt>
<trkpt lat="47.01686500" lon="6.85352900"><ele>867.2500000152</ele><time>2011-10-11T15:37:48Z</time></trkpt>
<trkpt lat="47.01683500" lon="6.85364500"><ele>866.770019568</ele><time>2011-10-11T15:37:50Z</time></trkpt>
<trkpt lat="47.01657700" lon="6.85454100"><ele>863.880005028</ele><time>2011-10-11T15:38:01Z</time></trkpt>
<trkpt lat="47.01645600" lon="6.85490500"><ele>861.9600219744</ele><time>2011-10-11T15:38:04Z</time></trkpt>
<trkpt lat="47.01626100" lon="6.85536700"><ele>858.5900269872</ele><time>2011-10-11T15:38:08Z</time></trkpt>
<trkpt lat="47.01616300" lon="6.85554600"><ele>856.6699829736</ele><time>2011-10-11T15:38:10Z</time></trkpt>
<trkpt lat="47.01607600" lon="6.85575300"><ele>855.7100220792</ele><time>2011-10-11T15:38:12Z</time></trkpt>
<trkpt lat="47.01586900" lon="6.85638800"><ele>852.3499754592</ele><time>2011-10-11T15:38:17Z</time></trkpt>
<trkpt lat="47.01578700" lon="6.85667300"><ele>851.3800049328</ele><time>2011-10-11T15:38:19Z</time></trkpt>
<trkpt lat="47.01565300" lon="6.85711100"><ele>848.979980472</ele><time>2011-10-11T15:38:22Z</time></trkpt>
<trkpt lat="47.01534600" lon="6.85800700"><ele>846.099975564</ele><time>2011-10-11T15:38:28Z</time></trkpt>
<trkpt lat="47.01509400" lon="6.85875300"><ele>842.7299805768</ele><time>2011-10-11T15:38:33Z</time></trkpt>
<trkpt lat="47.01500500" lon="6.85905400"><ele>841.2899779704</ele><time>2011-10-11T15:38:35Z</time></trkpt>
<trkpt lat="47.01485000" lon="6.85983900"><ele>837.450012168</ele><time>2011-10-11T15:38:40Z</time></trkpt>
<trkpt lat="47.01479000" lon="6.86032000"><ele>834.559997628</ele><time>2011-10-11T15:38:43Z</time></trkpt>
<trkpt lat="47.01476300" lon="6.86047800"><ele>834.0800171808</ele><time>2011-10-11T15:38:44Z</time></trkpt>
<trkpt lat="47.01453300" lon="6.86120400"><ele>830.7199705608</ele><time>2011-10-11T15:38:49Z</time></trkpt>
<trkpt lat="47.01418300" lon="6.86229600"><ele>827.8300169808</ele><time>2011-10-11T15:38:57Z</time></trkpt>
<trkpt lat="47.01402100" lon="6.86313000"><ele>824.4699706656</ele><time>2011-10-11T15:39:03Z</time></trkpt>
<trkpt lat="47.01375900" lon="6.86389100"><ele>821.5800170856</ele><time>2011-10-11T15:39:09Z</time></trkpt>
<trkpt lat="47.01353900" lon="6.86437200"><ele>819.659973072</ele><time>2011-10-11T15:39:13Z</time></trkpt>
<trkpt lat="47.01319100" lon="6.86475900"><ele>817.260009876</ele><time>2011-10-11T15:39:18Z</time></trkpt>
<trkpt lat="47.01302400" lon="6.86484300"><ele>815.8200072696</ele><time>2011-10-11T15:39:21Z</time></trkpt>
<trkpt lat="47.01303000" lon="6.86509800"><ele>814.3699950312</ele><time>2011-10-11T15:39:27Z</time></trkpt>
<trkpt lat="47.01300700" lon="6.86483300"><ele>815.3400268224</ele><time>2011-10-11T15:39:32Z</time></trkpt>
<trkpt lat="47.01287600" lon="6.86467400"><ele>815.3400268224</ele><time>2011-10-11T15:39:35Z</time></trkpt>
<trkpt lat="47.01216800" lon="6.86351500"><ele>816.7800294288</ele><time>2011-10-11T15:39:53Z</time></trkpt>
<trkpt lat="47.01148700" lon="6.86266900"><ele>817.260009876</ele><time>2011-10-11T15:40:08Z</time></trkpt>
<trkpt lat="47.01122600" lon="6.86249700"><ele>817.260009876</ele><time>2011-10-11T15:40:13Z</time></trkpt>
<trkpt lat="47.01067900" lon="6.86230700"><ele>817.7399903232</ele><time>2011-10-11T15:40:23Z</time></trkpt>
<trkpt lat="47.01053900" lon="6.86261100"><ele>817.260009876</ele><time>2011-10-11T15:40:29Z</time></trkpt>
<trkpt lat="47.01031500" lon="6.86353000"><ele>816.7800294288</ele><time>2011-10-11T15:40:40Z</time></trkpt>
<trkpt lat="47.01020000" lon="6.86374300"><ele>816.2999877168</ele><time>2011-10-11T15:40:43Z</time></trkpt>
<trkpt lat="47.01019800" lon="6.86434100"><ele>816.2999877168</ele><time>2011-10-11T15:40:50Z</time></trkpt>
<trkpt lat="47.01025700" lon="6.86450500"><ele>816.2999877168</ele><time>2011-10-11T15:40:52Z</time></trkpt>
<trkpt lat="47.01069300" lon="6.86529200"><ele>814.8499754784</ele><time>2011-10-11T15:41:02Z</time></trkpt>
<trkpt lat="47.01090600" lon="6.86548100"><ele>813.4099731768</ele><time>2011-10-11T15:41:06Z</time></trkpt>
<trkpt lat="47.01118100" lon="6.86570700"><ele>811.010009676</ele><time>2011-10-11T15:41:10Z</time></trkpt>
<trkpt lat="47.01141100" lon="6.86596200"><ele>811.010009676</ele><time>2011-10-11T15:41:14Z</time></trkpt>
<trkpt lat="47.01163700" lon="6.86613200"><ele>810.0499878216</ele><time>2011-10-11T15:41:19Z</time></trkpt>
<trkpt lat="47.01152300" lon="6.86607300"><ele>810.0499878216</ele><time>2011-10-11T15:41:27Z</time></trkpt>
<trkpt lat="47.01145600" lon="6.86600700"><ele>810.5300292288</ele><time>2011-10-11T15:41:29Z</time></trkpt>
<trkpt lat="47.01138600" lon="6.86590600"><ele>810.5300292288</ele><time>2011-10-11T15:41:31Z</time></trkpt>
<trkpt lat="47.01099400" lon="6.86584500"><ele>811.010009676</ele><time>2011-10-11T15:41:39Z</time></trkpt>
<trkpt lat="47.01096500" lon="6.86591400"><ele>811.010009676</ele><time>2011-10-11T15:41:40Z</time></trkpt>
<trkpt lat="47.01088700" lon="6.86616400"><ele>810.0499878216</ele><time>2011-10-11T15:41:43Z</time></trkpt>
<trkpt lat="47.01020000" lon="6.86735500"><ele>808.6099852152</ele><time>2011-10-11T15:41:58Z</time></trkpt>
<trkpt lat="47.01009600" lon="6.86749600"><ele>808.6099852152</ele><time>2011-10-11T15:42:00Z</time></trkpt>
<trkpt lat="47.00961500" lon="6.86851700"><ele>809.0900269272</ele><time>2011-10-11T15:42:13Z</time></trkpt>
<trkpt lat="47.00922900" lon="6.86926600"><ele>811.010009676</ele><time>2011-10-11T15:42:25Z</time></trkpt>
<trkpt lat="47.00905600" lon="6.86955400"><ele>810.5300292288</ele><time>2011-10-11T15:42:30Z</time></trkpt>
<trkpt lat="47.00849500" lon="6.87047900"><ele>807.6400146888</ele><time>2011-10-11T15:42:43Z</time></trkpt>
<trkpt lat="47.00839800" lon="6.87068600"><ele>805.7199706752</ele><time>2011-10-11T15:42:45Z</time></trkpt>
<trkpt lat="47.00822900" lon="6.87115600"><ele>803.7999879264</ele><time>2011-10-11T15:42:49Z</time></trkpt>
<trkpt lat="47.00812800" lon="6.87191300"><ele>800.9199830184</ele><time>2011-10-11T15:42:55Z</time></trkpt>
<trkpt lat="47.00812100" lon="6.87203800"><ele>800.9199830184</ele><time>2011-10-11T15:42:56Z</time></trkpt>
<trkpt lat="47.00811600" lon="6.87216200"><ele>800.4400025712</ele><time>2011-10-11T15:42:57Z</time></trkpt>
<trkpt lat="47.00813300" lon="6.87240400"><ele>798.9899903328</ele><time>2011-10-11T15:42:59Z</time></trkpt>
<trkpt lat="47.00820400" lon="6.87289200"><ele>798.0300294384</ele><time>2011-10-11T15:43:03Z</time></trkpt>
<trkpt lat="47.00821000" lon="6.87338200"><ele>796.590026832</ele><time>2011-10-11T15:43:07Z</time></trkpt>
<trkpt lat="47.00787200" lon="6.87405300"><ele>794.1900023712</ele><time>2011-10-11T15:43:14Z</time></trkpt>
<trkpt lat="47.00779800" lon="6.87412800"><ele>793.21997058</ele><time>2011-10-11T15:43:15Z</time></trkpt>
<trkpt lat="47.00756400" lon="6.87431300"><ele>791.2999878312</ele><time>2011-10-11T15:43:18Z</time></trkpt>
<trkpt lat="47.00662700" lon="6.87479500"><ele>789.8599852248</ele><time>2011-10-11T15:43:32Z</time></trkpt>
<trkpt lat="47.00599800" lon="6.87556400"><ele>787.940002476</ele><time>2011-10-11T15:43:44Z</time></trkpt>
<trkpt lat="47.00587200" lon="6.87576200"><ele>787.4600220288</ele><time>2011-10-11T15:43:47Z</time></trkpt>
<trkpt lat="47.00576600" lon="6.87601300"><ele>786.0200194224</ele><time>2011-10-11T15:43:51Z</time></trkpt>
<trkpt lat="47.00572400" lon="6.87619500"><ele>785.049987936</ele><time>2011-10-11T15:43:54Z</time></trkpt>
<trkpt lat="47.00567100" lon="6.87657900"><ele>781.6900025808</ele><time>2011-10-11T15:43:59Z</time></trkpt>
<trkpt lat="47.00561200" lon="6.87688400"><ele>778.3200072888</ele><time>2011-10-11T15:44:02Z</time></trkpt>
<trkpt lat="47.00553200" lon="6.87734100"><ele>775.919982828</ele><time>2011-10-11T15:44:06Z</time></trkpt>
<trkpt lat="47.00556500" lon="6.87777200"><ele>775.919982828</ele><time>2011-10-11T15:44:11Z</time></trkpt>
<trkpt lat="47.00563600" lon="6.87833400"><ele>777.3599854344</ele><time>2011-10-11T15:44:22Z</time></trkpt>
<trkpt lat="47.00565300" lon="6.87845900"><ele>778.8099976728</ele><time>2011-10-11T15:44:25Z</time></trkpt>
<trkpt lat="47.00570600" lon="6.87862400"><ele>779.7700195272</ele><time>2011-10-11T15:44:30Z</time></trkpt>
<trkpt lat="47.00573000" lon="6.87897500"><ele>783.6099853296</ele><time>2011-10-11T15:44:39Z</time></trkpt>
<trkpt lat="47.00575100" lon="6.87922700"><ele>785.049987936</ele><time>2011-10-11T15:44:46Z</time></trkpt>
<trkpt lat="47.00572300" lon="6.87962500"><ele>786.0200194224</ele><time>2011-10-11T15:44:57Z</time></trkpt>
<trkpt lat="47.00571300" lon="6.88003000"><ele>787.940002476</ele><time>2011-10-11T15:45:10Z</time></trkpt>
<trkpt lat="47.00563000" lon="6.88057200"><ele>789.8599852248</ele><time>2011-10-11T15:45:25Z</time></trkpt>
<trkpt lat="47.00553400" lon="6.88090500"><ele>792.2600096856</ele><time>2011-10-11T15:45:37Z</time></trkpt>
<trkpt lat="47.00542400" lon="6.88098800"><ele>791.7800292384</ele><time>2011-10-11T15:45:42Z</time></trkpt>
<trkpt lat="47.00520100" lon="6.88113800"><ele>790.820007384</ele><time>2011-10-11T15:45:47Z</time></trkpt>
<trkpt lat="47.00495300" lon="6.88129500"><ele>789.8599852248</ele><time>2011-10-11T15:45:55Z</time></trkpt>
<trkpt lat="47.00499900" lon="6.88157400"><ele>789.3800047776</ele><time>2011-10-11T15:46:02Z</time></trkpt>
<trkpt lat="47.00513400" lon="6.88224900"><ele>789.8599852248</ele><time>2011-10-11T15:46:15Z</time></trkpt>
<trkpt lat="47.00518300" lon="6.88245500"><ele>789.8599852248</ele><time>2011-10-11T15:46:19Z</time></trkpt>
<trkpt lat="47.00523500" lon="6.88275900"><ele>789.3800047776</ele><time>2011-10-11T15:46:24Z</time></trkpt>
<trkpt lat="47.00525400" lon="6.88289400"><ele>789.3800047776</ele><time>2011-10-11T15:46:26Z</time></trkpt>
<trkpt lat="47.00526700" lon="6.88365100"><ele>787.4600220288</ele><time>2011-10-11T15:46:35Z</time></trkpt>
<trkpt lat="47.00524000" lon="6.88419300"><ele>786.0200194224</ele><time>2011-10-11T15:46:41Z</time></trkpt>
<trkpt lat="47.00523000" lon="6.88456000"><ele>785.5300293432</ele><time>2011-10-11T15:46:45Z</time></trkpt>
<trkpt lat="47.00521500" lon="6.88490100"><ele>785.5300293432</ele><time>2011-10-11T15:46:49Z</time></trkpt>
<trkpt lat="47.00522100" lon="6.88535800"><ele>785.5300293432</ele><time>2011-10-11T15:46:54Z</time></trkpt>
<trkpt lat="47.00510800" lon="6.88648800"><ele>785.049987936</ele><time>2011-10-11T15:47:07Z</time></trkpt>
<trkpt lat="47.00503900" lon="6.88688200"><ele>785.049987936</ele><time>2011-10-11T15:47:12Z</time></trkpt>
<trkpt lat="47.00500900" lon="6.88729700"><ele>785.5300293432</ele><time>2011-10-11T15:47:17Z</time></trkpt>
<trkpt lat="47.00494200" lon="6.88787000"><ele>786.4999998696</ele><time>2011-10-11T15:47:25Z</time></trkpt>
<trkpt lat="47.00491000" lon="6.88824500"><ele>787.4600220288</ele><time>2011-10-11T15:47:31Z</time></trkpt>
<trkpt lat="47.00491900" lon="6.88856000"><ele>787.940002476</ele><time>2011-10-11T15:47:36Z</time></trkpt>
<trkpt lat="47.00493400" lon="6.88875900"><ele>787.940002476</ele><time>2011-10-11T15:47:39Z</time></trkpt>
<trkpt lat="47.00493500" lon="6.88917700"><ele>789.3800047776</ele><time>2011-10-11T15:47:47Z</time></trkpt>
<trkpt lat="47.00495300" lon="6.88941200"><ele>790.820007384</ele><time>2011-10-11T15:47:52Z</time></trkpt>
<trkpt lat="47.00498700" lon="6.88983700"><ele>794.1900023712</ele><time>2011-10-11T15:48:01Z</time></trkpt>
<trkpt lat="47.00480800" lon="6.89036600"><ele>795.1500245304</ele><time>2011-10-11T15:48:12Z</time></trkpt>
<trkpt lat="47.00475100" lon="6.89046200"><ele>794.6699828184</ele><time>2011-10-11T15:48:14Z</time></trkpt>
<trkpt lat="47.00461300" lon="6.89074900"><ele>794.1900023712</ele><time>2011-10-11T15:48:19Z</time></trkpt>
<trkpt lat="47.00451600" lon="6.89095900"><ele>793.21997058</ele><time>2011-10-11T15:48:22Z</time></trkpt>
<trkpt lat="47.00437300" lon="6.89123400"><ele>792.2600096856</ele><time>2011-10-11T15:48:26Z</time></trkpt>
<trkpt lat="47.00404700" lon="6.89178700"><ele>788.9000243304</ele><time>2011-10-11T15:48:34Z</time></trkpt>
<trkpt lat="47.00400200" lon="6.89185500"><ele>788.4199829232</ele><time>2011-10-11T15:48:35Z</time></trkpt>
<trkpt lat="47.00371500" lon="6.89210400"><ele>785.5300293432</ele><time>2011-10-11T15:48:40Z</time></trkpt>
<trkpt lat="47.00353100" lon="6.89218800"><ele>784.0900267368</ele><time>2011-10-11T15:48:43Z</time></trkpt>
<trkpt lat="47.00319900" lon="6.89240600"><ele>782.6500244352</ele><time>2011-10-11T15:48:48Z</time></trkpt>
<trkpt lat="47.00300400" lon="6.89279100"><ele>781.2100218288</ele><time>2011-10-11T15:48:54Z</time></trkpt>
<trkpt lat="47.00294800" lon="6.89296800"><ele>781.6900025808</ele><time>2011-10-11T15:48:56Z</time></trkpt>
<trkpt lat="47.00279300" lon="6.89327400"><ele>781.2100218288</ele><time>2011-10-11T15:49:00Z</time></trkpt>
<trkpt lat="47.00254300" lon="6.89349000"><ele>780.7299804216</ele><time>2011-10-11T15:49:04Z</time></trkpt>
<trkpt lat="47.00177500" lon="6.89372500"><ele>780.2499999744</ele><time>2011-10-11T15:49:15Z</time></trkpt>
<trkpt lat="47.00170400" lon="6.89372500"><ele>779.7700195272</ele><time>2011-10-11T15:49:16Z</time></trkpt>
<trkpt lat="47.00109800" lon="6.89350500"><ele>776.8800049872</ele><time>2011-10-11T15:49:24Z</time></trkpt>
<trkpt lat="47.00062700" lon="6.89308100"><ele>772.0800170256</ele><time>2011-10-11T15:49:30Z</time></trkpt>
<trkpt lat="47.00030300" lon="6.89272100"><ele>768.7100220384</ele><time>2011-10-11T15:49:34Z</time></trkpt>
<trkpt lat="47.00002200" lon="6.89242200"><ele>765.3499757232</ele><time>2011-10-11T15:49:37Z</time></trkpt>
<trkpt lat="46.99981300" lon="6.89219800"><ele>763.4199830376</ele><time>2011-10-11T15:49:39Z</time></trkpt>
<trkpt lat="46.99934000" lon="6.89137300"><ele>760.0599976824</ele><time>2011-10-11T15:49:45Z</time></trkpt>
<trkpt lat="46.99915600" lon="6.89096100"><ele>758.619995076</ele><time>2011-10-11T15:49:48Z</time></trkpt>
<trkpt lat="46.99852700" lon="6.88960300"><ele>755.729980536</ele><time>2011-10-11T15:50:00Z</time></trkpt>
<trkpt lat="46.99834900" lon="6.88909300"><ele>754.2899779296</ele><time>2011-10-11T15:50:05Z</time></trkpt>
<trkpt lat="46.99826200" lon="6.88876300"><ele>754.2899779296</ele><time>2011-10-11T15:50:08Z</time></trkpt>
<trkpt lat="46.99792800" lon="6.88740100"><ele>751.4099730216</ele><time>2011-10-11T15:50:20Z</time></trkpt>
<trkpt lat="46.99781200" lon="6.88706100"><ele>751.4099730216</ele><time>2011-10-11T15:50:23Z</time></trkpt>
<trkpt lat="46.99715900" lon="6.88583300"><ele>747.5599975872</ele><time>2011-10-11T15:50:36Z</time></trkpt>
<trkpt lat="46.99689600" lon="6.88540200"><ele>746.1199949808</ele><time>2011-10-11T15:50:41Z</time></trkpt>
<trkpt lat="46.99664100" lon="6.88496700"><ele>743.7199708248</ele><time>2011-10-11T15:50:46Z</time></trkpt>
<trkpt lat="46.99642300" lon="6.88460100"><ele>742.2800291784</ele><time>2011-10-11T15:50:50Z</time></trkpt>
<trkpt lat="46.99625000" lon="6.88430400"><ele>740.83001694</ele><time>2011-10-11T15:50:53Z</time></trkpt>
<trkpt lat="46.99589400" lon="6.88366100"><ele>737.4699706248</ele><time>2011-10-11T15:50:59Z</time></trkpt>
<trkpt lat="46.99552600" lon="6.88298100"><ele>735.0700074288</ele><time>2011-10-11T15:51:05Z</time></trkpt>
<trkpt lat="46.99540600" lon="6.88279000"><ele>733.1400147432</ele><time>2011-10-11T15:51:07Z</time></trkpt>
<trkpt lat="46.99504400" lon="6.88252100"><ele>728.8200072288</ele><time>2011-10-11T15:51:13Z</time></trkpt>
<trkpt lat="46.99491400" lon="6.88256600"><ele>728.3400267816</ele><time>2011-10-11T15:51:15Z</time></trkpt>
<trkpt lat="46.99475400" lon="6.88279700"><ele>726.8900145432</ele><time>2011-10-11T15:51:18Z</time></trkpt>
<trkpt lat="46.99470000" lon="6.88325500"><ele>724.4899900824</ele><time>2011-10-11T15:51:22Z</time></trkpt>
<trkpt lat="46.99484400" lon="6.88425100"><ele>721.6099854792</ele><time>2011-10-11T15:51:29Z</time></trkpt>
<trkpt lat="46.99492600" lon="6.88490400"><ele>717.76000974</ele><time>2011-10-11T15:51:33Z</time></trkpt>
<trkpt lat="46.99496400" lon="6.88525400"><ele>715.3599852792</ele><time>2011-10-11T15:51:35Z</time></trkpt>
<trkpt lat="46.99497500" lon="6.88596800"><ele>711.5100098448</ele><time>2011-10-11T15:51:39Z</time></trkpt>
<trkpt lat="46.99489700" lon="6.88669300"><ele>706.7100218832</ele><time>2011-10-11T15:51:43Z</time></trkpt>
<trkpt lat="46.99487200" lon="6.88687900"><ele>705.2600096448</ele><time>2011-10-11T15:51:44Z</time></trkpt>
<trkpt lat="46.99477600" lon="6.88739700"><ele>702.8599854888</ele><time>2011-10-11T15:51:47Z</time></trkpt>
<trkpt lat="46.99469800" lon="6.88789600"><ele>698.5300293024</ele><time>2011-10-11T15:51:50Z</time></trkpt>
<trkpt lat="46.99465500" lon="6.88859300"><ele>693.2499999336</ele><time>2011-10-11T15:51:54Z</time></trkpt>
<trkpt lat="46.99463100" lon="6.88910400"><ele>689.4000244992</ele><time>2011-10-11T15:51:57Z</time></trkpt>
<trkpt lat="46.99461900" lon="6.88928000"><ele>687.9600218928</ele><time>2011-10-11T15:51:58Z</time></trkpt>
<trkpt lat="46.99449900" lon="6.89015800"><ele>683.1500242992</ele><time>2011-10-11T15:52:03Z</time></trkpt>
<trkpt lat="46.99428000" lon="6.89093100"><ele>678.8300170896</ele><time>2011-10-11T15:52:08Z</time></trkpt>
<trkpt lat="46.99410000" lon="6.89142000"><ele>675.4600221024</ele><time>2011-10-11T15:52:11Z</time></trkpt>
<trkpt lat="46.99391200" lon="6.89191200"><ele>673.0599976416</ele><time>2011-10-11T15:52:14Z</time></trkpt>
<trkpt lat="46.99366700" lon="6.89256000"><ele>669.7000122864</ele><time>2011-10-11T15:52:18Z</time></trkpt>
<trkpt lat="46.99341700" lon="6.89316600"><ele>666.8099974416</ele><time>2011-10-11T15:52:22Z</time></trkpt>
<trkpt lat="46.99324200" lon="6.89356500"><ele>662.9699706792</ele><time>2011-10-11T15:52:25Z</time></trkpt>
<trkpt lat="46.99291000" lon="6.89390400"><ele>658.1599730856</ele><time>2011-10-11T15:52:29Z</time></trkpt>
<trkpt lat="46.99257200" lon="6.89401300"><ele>653.830017204</ele><time>2011-10-11T15:52:32Z</time></trkpt>
<trkpt lat="46.99236000" lon="6.89404400"><ele>650.950012296</ele><time>2011-10-11T15:52:34Z</time></trkpt>
<trkpt lat="46.99225700" lon="6.89405500"><ele>649.5100096896</ele><time>2011-10-11T15:52:35Z</time></trkpt>
<trkpt lat="46.99195400" lon="6.89403300"><ele>646.6199951496</ele><time>2011-10-11T15:52:38Z</time></trkpt>
<trkpt lat="46.99175500" lon="6.89393600"><ele>643.7399902416</ele><time>2011-10-11T15:52:40Z</time></trkpt>
<trkpt lat="46.99154400" lon="6.89359800"><ele>639.8900145024</ele><time>2011-10-11T15:52:43Z</time></trkpt>
<trkpt lat="46.99146000" lon="6.89328400"><ele>636.5300291472</ele><time>2011-10-11T15:52:45Z</time></trkpt>
<trkpt lat="46.99127200" lon="6.89254300"><ele>630.7600096992</ele><time>2011-10-11T15:52:49Z</time></trkpt>
<trkpt lat="46.99122300" lon="6.89237100"><ele>628.8400269504</ele><time>2011-10-11T15:52:50Z</time></trkpt>
<trkpt lat="46.99109800" lon="6.89171700"><ele>624.510009804</ele><time>2011-10-11T15:52:54Z</time></trkpt>
<trkpt lat="46.99100400" lon="6.89121300"><ele>620.6699830416</ele><time>2011-10-11T15:52:57Z</time></trkpt>
<trkpt lat="46.99097100" lon="6.89105100"><ele>619.2299804352</ele><time>2011-10-11T15:52:58Z</time></trkpt>
<trkpt lat="46.99073100" lon="6.89049600"><ele>614.9000245536</ele><time>2011-10-11T15:53:02Z</time></trkpt>
<trkpt lat="46.99056800" lon="6.89025800"><ele>612.0200196456</ele><time>2011-10-11T15:53:04Z</time></trkpt>
<trkpt lat="46.99035400" lon="6.88973300"><ele>609.1300048008</ele><time>2011-10-11T15:53:08Z</time></trkpt>
<trkpt lat="46.99012100" lon="6.88904100"><ele>603.3599853528</ele><time>2011-10-11T15:53:13Z</time></trkpt>
<trkpt lat="46.98997900" lon="6.88884400"><ele>599.5200195504</ele><time>2011-10-11T15:53:16Z</time></trkpt>
<trkpt lat="46.98975600" lon="6.88867300"><ele>595.6699828512</ele><time>2011-10-11T15:53:20Z</time></trkpt>
<trkpt lat="46.98935200" lon="6.88838400"><ele>591.3499756416</ele><time>2011-10-11T15:53:26Z</time></trkpt>
<trkpt lat="46.98907400" lon="6.88823700"><ele>587.9799803496</ele><time>2011-10-11T15:53:29Z</time></trkpt>
<trkpt lat="46.98897600" lon="6.88818400"><ele>587.9799803496</ele><time>2011-10-11T15:53:30Z</time></trkpt>
<trkpt lat="46.98868400" lon="6.88802500"><ele>584.6199949944</ele><time>2011-10-11T15:53:33Z</time></trkpt>
<trkpt lat="46.98843900" lon="6.88787700"><ele>581.2500000072</ele><time>2011-10-11T15:53:36Z</time></trkpt>
<trkpt lat="46.98831300" lon="6.88780200"><ele>578.3699950992</ele><time>2011-10-11T15:53:38Z</time></trkpt>
<trkpt lat="46.98814100" lon="6.88797500"><ele>575.9699706384</ele><time>2011-10-11T15:53:43Z</time></trkpt>
<trkpt lat="46.98824100" lon="6.88825300"><ele>573.5599975056</ele><time>2011-10-11T15:53:46Z</time></trkpt>
<trkpt lat="46.98834500" lon="6.88853600"><ele>569.7199707432</ele><time>2011-10-11T15:53:50Z</time></trkpt>
<trkpt lat="46.98827900" lon="6.88876500"><ele>567.7999876896</ele><time>2011-10-11T15:53:54Z</time></trkpt>
<trkpt lat="46.98812100" lon="6.88887200"><ele>565.869995004</ele><time>2011-10-11T15:53:58Z</time></trkpt>
<trkpt lat="46.98827700" lon="6.88919500"><ele>563.9500122552</ele><time>2011-10-11T15:54:05Z</time></trkpt>
<trkpt lat="46.98835700" lon="6.88934200"><ele>562.5100096488</ele><time>2011-10-11T15:54:07Z</time></trkpt>
<trkpt lat="46.98843000" lon="6.88950100"><ele>562.0300292016</ele><time>2011-10-11T15:54:09Z</time></trkpt>
<trkpt lat="46.98851100" lon="6.88964200"><ele>561.5499877944</ele><time>2011-10-11T15:54:11Z</time></trkpt>
<trkpt lat="46.98871700" lon="6.89016600"><ele>561.0700073472</ele><time>2011-10-11T15:54:18Z</time></trkpt>
<trkpt lat="46.98892200" lon="6.89072300"><ele>561.5499877944</ele><time>2011-10-11T15:54:26Z</time></trkpt>
<trkpt lat="46.98911400" lon="6.89136600"><ele>561.5499877944</ele><time>2011-10-11T15:54:34Z</time></trkpt>
<trkpt lat="46.98897000" lon="6.89169100"><ele>561.0700073472</ele><time>2011-10-11T15:54:40Z</time></trkpt>
<trkpt lat="46.98850300" lon="6.89181300"><ele>557.219970648</ele><time>2011-10-11T15:54:47Z</time></trkpt>
<trkpt lat="46.98846800" lon="6.89183300"><ele>556.7399902008</ele><time>2011-10-11T15:54:48Z</time></trkpt>
<trkpt lat="46.98844000" lon="6.89192300"><ele>555.7800293064</ele><time>2011-10-11T15:54:50Z</time></trkpt>
<trkpt lat="46.98850900" lon="6.89215300"><ele>555.7800293064</ele><time>2011-10-11T15:54:54Z</time></trkpt>
<trkpt lat="46.98854200" lon="6.89228100"><ele>555.7800293064</ele><time>2011-10-11T15:54:56Z</time></trkpt>
<trkpt lat="46.98871000" lon="6.89294800"><ele>556.2600097536</ele><time>2011-10-11T15:55:06Z</time></trkpt>
<trkpt lat="46.98885600" lon="6.89361600"><ele>557.219970648</ele><time>2011-10-11T15:55:18Z</time></trkpt>
<trkpt lat="46.98902100" lon="6.89368300"><ele>559.1400146616</ele><time>2011-10-11T15:55:23Z</time></trkpt>
<trkpt lat="46.98912800" lon="6.89364300"><ele>560.5900269</ele><time>2011-10-11T15:55:26Z</time></trkpt>
<trkpt lat="46.98927500" lon="6.89367800"><ele>563.9500122552</ele><time>2011-10-11T15:55:31Z</time></trkpt>
<trkpt lat="46.98931200" lon="6.89372600"><ele>564.9099731496</ele><time>2011-10-11T15:55:33Z</time></trkpt>
<trkpt lat="46.98931800" lon="6.89405400"><ele>564.4299927024</ele><time>2011-10-11T15:55:43Z</time></trkpt>
<trkpt lat="46.98927400" lon="6.89418400"><ele>564.4299927024</ele><time>2011-10-11T15:55:51Z</time></trkpt>
<trkpt lat="46.98928200" lon="6.89415300"><ele>563.9500122552</ele><time>2011-10-11T15:56:03Z</time></trkpt>
<trkpt lat="46.98927700" lon="6.89418300"><ele>563.469970848</ele><time>2011-10-11T15:56:13Z</time></trkpt>
<trkpt lat="46.98927700" lon="6.89418300"><ele>562.989990096</ele><time>2011-10-11T15:56:32Z</time></trkpt>
<trkpt lat="46.98927600" lon="6.89418300"><ele>562.989990096</ele><time>2011-10-11T15:56:37Z</time></trkpt>
<trkpt lat="46.98987900" lon="6.89444800"><ele>575.010009744</ele><time>2011-10-11T16:08:16Z</time></trkpt>
<trkpt lat="46.99098600" lon="6.89640300"><ele>575.010009744</ele><time>2011-10-11T16:08:22Z</time></trkpt>
<trkpt lat="46.99128700" lon="6.89675000"><ele>575.4899901912</ele><time>2011-10-11T16:08:26Z</time></trkpt>
<trkpt lat="46.99105100" lon="6.89610600"><ele>575.010009744</ele><time>2011-10-11T16:08:50Z</time></trkpt>
<trkpt lat="46.99088000" lon="6.89723000"><ele>575.4899901912</ele><time>2011-10-11T16:08:55Z</time></trkpt>
<trkpt lat="46.99067800" lon="6.89660900"><ele>575.9699706384</ele><time>2011-10-11T16:09:01Z</time></trkpt>
</trkseg></trk></gpx>